<?xml version="1.0" encoding="UTF-8" standalone="no" ?>
<gpx xmlns="http://www.topografix.com/GPX/1/1" xmlns:xsi="http://www.w3.org/2001/XMLSchema-instance" xsi:schemaLocation="http://www.topografix.com/GPX/1/1 http://www.topografix.com/GPX/1/1/gpx.xsd" version="1.1" creator="VisuGPX - https://www.visugpx.com">
  <metadata>
    <name>Cime Sambuis en boucle</name>
    <desc><![CDATA[Cime sambuis en boucle par la combe de MontRond et le col Sambuis]]></desc>
  </metadata>
  <wpt lat="45.28366" lon="6.2093">
    <ele>1226</ele>
    <name><![CDATA[0000159]]></name>
  </wpt>
  <wpt lat="45.28383" lon="6.21056">
    <ele>1211</ele>
    <name><![CDATA[0000160]]></name>
  </wpt>
  <trk>
    <name><![CDATA[2019-01-25 09:10-sambuis]]></name>
    <trkseg>
      <trkpt lat="45.28366" lon="6.2093">
        <ele>1226</ele>
        <time>2019-01-25T08:10:31Z</time>
      </trkpt>
      <trkpt lat="45.28357" lon="6.20907">
        <ele>1236</ele>
        <time>2019-01-25T08:12:49Z</time>
      </trkpt>
      <trkpt lat="45.28351" lon="6.20882">
        <ele>1239</ele>
        <time>2019-01-25T08:13:15Z</time>
      </trkpt>
      <trkpt lat="45.28347" lon="6.20854">
        <ele>1242</ele>
        <time>2019-01-25T08:13:37Z</time>
      </trkpt>
      <trkpt lat="45.28339" lon="6.2083">
        <ele>1247</ele>
        <time>2019-01-25T08:13:58Z</time>
      </trkpt>
      <trkpt lat="45.28333" lon="6.20804">
        <ele>1250</ele>
        <time>2019-01-25T08:14:20Z</time>
      </trkpt>
      <trkpt lat="45.28328" lon="6.20779">
        <ele>1253</ele>
        <time>2019-01-25T08:14:42Z</time>
      </trkpt>
      <trkpt lat="45.28323" lon="6.20755">
        <ele>1256</ele>
        <time>2019-01-25T08:15:06Z</time>
      </trkpt>
      <trkpt lat="45.28318" lon="6.20729">
        <ele>1265</ele>
        <time>2019-01-25T08:15:38Z</time>
      </trkpt>
      <trkpt lat="45.28335" lon="6.20722">
        <ele>1273</ele>
        <time>2019-01-25T08:16:04Z</time>
      </trkpt>
      <trkpt lat="45.2835" lon="6.20706">
        <ele>1278</ele>
        <time>2019-01-25T08:16:32Z</time>
      </trkpt>
      <trkpt lat="45.28338" lon="6.20684">
        <ele>1278</ele>
        <time>2019-01-25T08:16:58Z</time>
      </trkpt>
      <trkpt lat="45.28332" lon="6.20659">
        <ele>1277</ele>
        <time>2019-01-25T08:17:20Z</time>
      </trkpt>
      <trkpt lat="45.28349" lon="6.20648">
        <ele>1290</ele>
        <time>2019-01-25T08:18:01Z</time>
      </trkpt>
      <trkpt lat="45.28353" lon="6.20622">
        <ele>1295</ele>
        <time>2019-01-25T08:18:31Z</time>
      </trkpt>
      <trkpt lat="45.28352" lon="6.20595">
        <ele>1296</ele>
        <time>2019-01-25T08:19:02Z</time>
      </trkpt>
      <trkpt lat="45.28343" lon="6.20573">
        <ele>1301</ele>
        <time>2019-01-25T08:19:18Z</time>
      </trkpt>
      <trkpt lat="45.28337" lon="6.20549">
        <ele>1308</ele>
        <time>2019-01-25T08:19:34Z</time>
      </trkpt>
      <trkpt lat="45.28333" lon="6.20521">
        <ele>1310</ele>
        <time>2019-01-25T08:19:53Z</time>
      </trkpt>
      <trkpt lat="45.2833" lon="6.20495">
        <ele>1306</ele>
        <time>2019-01-25T08:20:15Z</time>
      </trkpt>
      <trkpt lat="45.28323" lon="6.2047">
        <ele>1310</ele>
        <time>2019-01-25T08:20:33Z</time>
      </trkpt>
      <trkpt lat="45.2832" lon="6.20442">
        <ele>1314</ele>
        <time>2019-01-25T08:20:55Z</time>
      </trkpt>
      <trkpt lat="45.28309" lon="6.20419">
        <ele>1316</ele>
        <time>2019-01-25T08:21:17Z</time>
      </trkpt>
      <trkpt lat="45.28305" lon="6.20392">
        <ele>1325</ele>
        <time>2019-01-25T08:21:37Z</time>
      </trkpt>
      <trkpt lat="45.28317" lon="6.20371">
        <ele>1328</ele>
        <time>2019-01-25T08:21:57Z</time>
      </trkpt>
      <trkpt lat="45.283" lon="6.20361">
        <ele>1327</ele>
        <time>2019-01-25T08:22:41Z</time>
      </trkpt>
      <trkpt lat="45.28283" lon="6.20346">
        <ele>1326</ele>
        <time>2019-01-25T08:23:01Z</time>
      </trkpt>
      <trkpt lat="45.28278" lon="6.2032">
        <ele>1338</ele>
        <time>2019-01-25T08:23:19Z</time>
      </trkpt>
      <trkpt lat="45.28259" lon="6.2032">
        <ele>1333</ele>
        <time>2019-01-25T08:23:39Z</time>
      </trkpt>
      <trkpt lat="45.28247" lon="6.20297">
        <ele>1333</ele>
        <time>2019-01-25T08:23:57Z</time>
      </trkpt>
      <trkpt lat="45.28241" lon="6.20273">
        <ele>1336</ele>
        <time>2019-01-25T08:24:19Z</time>
      </trkpt>
      <trkpt lat="45.28234" lon="6.20246">
        <ele>1345</ele>
        <time>2019-01-25T08:24:43Z</time>
      </trkpt>
      <trkpt lat="45.28225" lon="6.20222">
        <ele>1349</ele>
        <time>2019-01-25T08:25:00Z</time>
      </trkpt>
      <trkpt lat="45.28217" lon="6.20197">
        <ele>1353</ele>
        <time>2019-01-25T08:25:22Z</time>
      </trkpt>
      <trkpt lat="45.28209" lon="6.20174">
        <ele>1354</ele>
        <time>2019-01-25T08:25:44Z</time>
      </trkpt>
      <trkpt lat="45.28202" lon="6.2015">
        <ele>1370</ele>
        <time>2019-01-25T08:26:06Z</time>
      </trkpt>
      <trkpt lat="45.28187" lon="6.20133">
        <ele>1370</ele>
        <time>2019-01-25T08:26:28Z</time>
      </trkpt>
      <trkpt lat="45.28168" lon="6.20124">
        <ele>1371</ele>
        <time>2019-01-25T08:26:51Z</time>
      </trkpt>
      <trkpt lat="45.28158" lon="6.20102">
        <ele>1366</ele>
        <time>2019-01-25T08:27:09Z</time>
      </trkpt>
      <trkpt lat="45.28147" lon="6.2008">
        <ele>1374</ele>
        <time>2019-01-25T08:27:33Z</time>
      </trkpt>
      <trkpt lat="45.28135" lon="6.2006">
        <ele>1374</ele>
        <time>2019-01-25T08:27:59Z</time>
      </trkpt>
      <trkpt lat="45.28123" lon="6.2004">
        <ele>1374</ele>
        <time>2019-01-25T08:29:11Z</time>
      </trkpt>
      <trkpt lat="45.28109" lon="6.20022">
        <ele>1372</ele>
        <time>2019-01-25T08:29:21Z</time>
      </trkpt>
      <trkpt lat="45.28094" lon="6.20005">
        <ele>1369</ele>
        <time>2019-01-25T08:29:31Z</time>
      </trkpt>
      <trkpt lat="45.2808" lon="6.19986">
        <ele>1369</ele>
        <time>2019-01-25T08:29:43Z</time>
      </trkpt>
      <trkpt lat="45.28069" lon="6.19966">
        <ele>1372</ele>
        <time>2019-01-25T08:29:55Z</time>
      </trkpt>
      <trkpt lat="45.28063" lon="6.19941">
        <ele>1374</ele>
        <time>2019-01-25T08:30:11Z</time>
      </trkpt>
      <trkpt lat="45.28046" lon="6.19932">
        <ele>1373</ele>
        <time>2019-01-25T08:32:35Z</time>
      </trkpt>
      <trkpt lat="45.28035" lon="6.19908">
        <ele>1378</ele>
        <time>2019-01-25T08:33:21Z</time>
      </trkpt>
      <trkpt lat="45.28023" lon="6.19887">
        <ele>1378</ele>
        <time>2019-01-25T08:33:31Z</time>
      </trkpt>
      <trkpt lat="45.2801" lon="6.19864">
        <ele>1378</ele>
        <time>2019-01-25T08:33:49Z</time>
      </trkpt>
      <trkpt lat="45.27997" lon="6.19844">
        <ele>1376</ele>
        <time>2019-01-25T08:34:04Z</time>
      </trkpt>
      <trkpt lat="45.27984" lon="6.19823">
        <ele>1378</ele>
        <time>2019-01-25T08:34:22Z</time>
      </trkpt>
      <trkpt lat="45.2797" lon="6.19806">
        <ele>1381</ele>
        <time>2019-01-25T08:34:48Z</time>
      </trkpt>
      <trkpt lat="45.27952" lon="6.198">
        <ele>1382</ele>
        <time>2019-01-25T08:35:12Z</time>
      </trkpt>
      <trkpt lat="45.27944" lon="6.19775">
        <ele>1383</ele>
        <time>2019-01-25T08:35:34Z</time>
      </trkpt>
      <trkpt lat="45.27937" lon="6.19749">
        <ele>1386</ele>
        <time>2019-01-25T08:35:52Z</time>
      </trkpt>
      <trkpt lat="45.27928" lon="6.19726">
        <ele>1387</ele>
        <time>2019-01-25T08:36:12Z</time>
      </trkpt>
      <trkpt lat="45.27909" lon="6.19729">
        <ele>1396</ele>
        <time>2019-01-25T08:36:42Z</time>
      </trkpt>
      <trkpt lat="45.27897" lon="6.19708">
        <ele>1400</ele>
        <time>2019-01-25T08:37:10Z</time>
      </trkpt>
      <trkpt lat="45.27883" lon="6.19692">
        <ele>1402</ele>
        <time>2019-01-25T08:37:36Z</time>
      </trkpt>
      <trkpt lat="45.2787" lon="6.19673">
        <ele>1405</ele>
        <time>2019-01-25T08:38:00Z</time>
      </trkpt>
      <trkpt lat="45.27865" lon="6.19646">
        <ele>1407</ele>
        <time>2019-01-25T08:38:28Z</time>
      </trkpt>
      <trkpt lat="45.27849" lon="6.19632">
        <ele>1409</ele>
        <time>2019-01-25T08:38:58Z</time>
      </trkpt>
      <trkpt lat="45.27835" lon="6.19648">
        <ele>1411</ele>
        <time>2019-01-25T08:39:28Z</time>
      </trkpt>
      <trkpt lat="45.27822" lon="6.19666">
        <ele>1424</ele>
        <time>2019-01-25T08:39:52Z</time>
      </trkpt>
      <trkpt lat="45.27804" lon="6.19661">
        <ele>1432</ele>
        <time>2019-01-25T08:40:24Z</time>
      </trkpt>
      <trkpt lat="45.27785" lon="6.19669">
        <ele>1443</ele>
        <time>2019-01-25T08:40:58Z</time>
      </trkpt>
      <trkpt lat="45.27773" lon="6.19688">
        <ele>1446</ele>
        <time>2019-01-25T08:41:28Z</time>
      </trkpt>
      <trkpt lat="45.27774" lon="6.19714">
        <ele>1447</ele>
        <time>2019-01-25T08:43:42Z</time>
      </trkpt>
      <trkpt lat="45.27775" lon="6.19744">
        <ele>1450</ele>
        <time>2019-01-25T08:44:04Z</time>
      </trkpt>
      <trkpt lat="45.27782" lon="6.19769">
        <ele>1454</ele>
        <time>2019-01-25T08:44:26Z</time>
      </trkpt>
      <trkpt lat="45.27785" lon="6.19796">
        <ele>1454</ele>
        <time>2019-01-25T08:44:46Z</time>
      </trkpt>
      <trkpt lat="45.27786" lon="6.19823">
        <ele>1457</ele>
        <time>2019-01-25T08:45:08Z</time>
      </trkpt>
      <trkpt lat="45.2779" lon="6.19848">
        <ele>1466</ele>
        <time>2019-01-25T08:45:26Z</time>
      </trkpt>
      <trkpt lat="45.27796" lon="6.19874">
        <ele>1467</ele>
        <time>2019-01-25T08:45:48Z</time>
      </trkpt>
      <trkpt lat="45.27803" lon="6.19899">
        <ele>1466</ele>
        <time>2019-01-25T08:46:10Z</time>
      </trkpt>
      <trkpt lat="45.27812" lon="6.19923">
        <ele>1474</ele>
        <time>2019-01-25T08:46:32Z</time>
      </trkpt>
      <trkpt lat="45.27816" lon="6.19949">
        <ele>1480</ele>
        <time>2019-01-25T08:46:56Z</time>
      </trkpt>
      <trkpt lat="45.27812" lon="6.19975">
        <ele>1485</ele>
        <time>2019-01-25T08:47:28Z</time>
      </trkpt>
      <trkpt lat="45.27818" lon="6.20001">
        <ele>1491</ele>
        <time>2019-01-25T08:47:54Z</time>
      </trkpt>
      <trkpt lat="45.27822" lon="6.20029">
        <ele>1497</ele>
        <time>2019-01-25T08:48:18Z</time>
      </trkpt>
      <trkpt lat="45.2782" lon="6.20054">
        <ele>1502</ele>
        <time>2019-01-25T08:48:42Z</time>
      </trkpt>
      <trkpt lat="45.27824" lon="6.20081">
        <ele>1501</ele>
        <time>2019-01-25T08:49:06Z</time>
      </trkpt>
      <trkpt lat="45.27829" lon="6.20109">
        <ele>1508</ele>
        <time>2019-01-25T08:49:36Z</time>
      </trkpt>
      <trkpt lat="45.27831" lon="6.20134">
        <ele>1512</ele>
        <time>2019-01-25T08:50:08Z</time>
      </trkpt>
      <trkpt lat="45.2784" lon="6.20158">
        <ele>1504</ele>
        <time>2019-01-25T08:50:40Z</time>
      </trkpt>
      <trkpt lat="45.27849" lon="6.20184">
        <ele>1507</ele>
        <time>2019-01-25T08:51:14Z</time>
      </trkpt>
      <trkpt lat="45.27851" lon="6.20212">
        <ele>1507</ele>
        <time>2019-01-25T08:51:54Z</time>
      </trkpt>
      <trkpt lat="45.27845" lon="6.20237">
        <ele>1513</ele>
        <time>2019-01-25T08:52:38Z</time>
      </trkpt>
      <trkpt lat="45.27846" lon="6.20212">
        <ele>1508</ele>
        <time>2019-01-25T08:53:58Z</time>
      </trkpt>
      <trkpt lat="45.27828" lon="6.20202">
        <ele>1514</ele>
        <time>2019-01-25T08:54:20Z</time>
      </trkpt>
      <trkpt lat="45.27815" lon="6.20181">
        <ele>1514</ele>
        <time>2019-01-25T09:00:00Z</time>
      </trkpt>
      <trkpt lat="45.27802" lon="6.20163">
        <ele>1514</ele>
        <time>2019-01-25T09:00:19Z</time>
      </trkpt>
      <trkpt lat="45.27788" lon="6.20145">
        <ele>1514</ele>
        <time>2019-01-25T09:00:53Z</time>
      </trkpt>
      <trkpt lat="45.27776" lon="6.20122">
        <ele>1515</ele>
        <time>2019-01-25T09:01:11Z</time>
      </trkpt>
      <trkpt lat="45.27767" lon="6.20099">
        <ele>1518</ele>
        <time>2019-01-25T09:01:31Z</time>
      </trkpt>
      <trkpt lat="45.27755" lon="6.20077">
        <ele>1522</ele>
        <time>2019-01-25T09:01:49Z</time>
      </trkpt>
      <trkpt lat="45.27743" lon="6.20055">
        <ele>1522</ele>
        <time>2019-01-25T09:02:07Z</time>
      </trkpt>
      <trkpt lat="45.2773" lon="6.20037">
        <ele>1521</ele>
        <time>2019-01-25T09:02:23Z</time>
      </trkpt>
      <trkpt lat="45.27716" lon="6.20018">
        <ele>1521</ele>
        <time>2019-01-25T09:02:41Z</time>
      </trkpt>
      <trkpt lat="45.27703" lon="6.19998">
        <ele>1525</ele>
        <time>2019-01-25T09:02:55Z</time>
      </trkpt>
      <trkpt lat="45.27691" lon="6.19973">
        <ele>1525</ele>
        <time>2019-01-25T09:03:21Z</time>
      </trkpt>
      <trkpt lat="45.27682" lon="6.1995">
        <ele>1527</ele>
        <time>2019-01-25T09:03:33Z</time>
      </trkpt>
      <trkpt lat="45.27672" lon="6.19924">
        <ele>1534</ele>
        <time>2019-01-25T09:03:51Z</time>
      </trkpt>
      <trkpt lat="45.2766" lon="6.19905">
        <ele>1537</ele>
        <time>2019-01-25T09:04:05Z</time>
      </trkpt>
      <trkpt lat="45.27647" lon="6.19884">
        <ele>1537</ele>
        <time>2019-01-25T09:04:23Z</time>
      </trkpt>
      <trkpt lat="45.27632" lon="6.19868">
        <ele>1537</ele>
        <time>2019-01-25T09:04:41Z</time>
      </trkpt>
      <trkpt lat="45.27623" lon="6.19845">
        <ele>1539</ele>
        <time>2019-01-25T09:05:29Z</time>
      </trkpt>
      <trkpt lat="45.27613" lon="6.19821">
        <ele>1544</ele>
        <time>2019-01-25T09:05:46Z</time>
      </trkpt>
      <trkpt lat="45.27604" lon="6.19799">
        <ele>1544</ele>
        <time>2019-01-25T09:06:08Z</time>
      </trkpt>
      <trkpt lat="45.27593" lon="6.19774">
        <ele>1547</ele>
        <time>2019-01-25T09:06:28Z</time>
      </trkpt>
      <trkpt lat="45.27578" lon="6.19753">
        <ele>1556</ele>
        <time>2019-01-25T09:06:48Z</time>
      </trkpt>
      <trkpt lat="45.27562" lon="6.19737">
        <ele>1561</ele>
        <time>2019-01-25T09:07:08Z</time>
      </trkpt>
      <trkpt lat="45.27546" lon="6.19725">
        <ele>1564</ele>
        <time>2019-01-25T09:07:38Z</time>
      </trkpt>
      <trkpt lat="45.27531" lon="6.1971">
        <ele>1566</ele>
        <time>2019-01-25T09:08:10Z</time>
      </trkpt>
      <trkpt lat="45.27523" lon="6.19686">
        <ele>1570</ele>
        <time>2019-01-25T09:08:44Z</time>
      </trkpt>
      <trkpt lat="45.27509" lon="6.19669">
        <ele>1580</ele>
        <time>2019-01-25T09:09:18Z</time>
      </trkpt>
      <trkpt lat="45.27511" lon="6.19643">
        <ele>1580</ele>
        <time>2019-01-25T09:09:48Z</time>
      </trkpt>
      <trkpt lat="45.27492" lon="6.19635">
        <ele>1594</ele>
        <time>2019-01-25T09:10:08Z</time>
      </trkpt>
      <trkpt lat="45.27478" lon="6.19619">
        <ele>1597</ele>
        <time>2019-01-25T09:10:40Z</time>
      </trkpt>
      <trkpt lat="45.2748" lon="6.19593">
        <ele>1600</ele>
        <time>2019-01-25T09:11:16Z</time>
      </trkpt>
      <trkpt lat="45.27474" lon="6.19567">
        <ele>1612</ele>
        <time>2019-01-25T09:11:42Z</time>
      </trkpt>
      <trkpt lat="45.2746" lon="6.19547">
        <ele>1615</ele>
        <time>2019-01-25T09:12:06Z</time>
      </trkpt>
      <trkpt lat="45.27444" lon="6.19533">
        <ele>1618</ele>
        <time>2019-01-25T09:12:38Z</time>
      </trkpt>
      <trkpt lat="45.27427" lon="6.1952">
        <ele>1625</ele>
        <time>2019-01-25T09:13:06Z</time>
      </trkpt>
      <trkpt lat="45.27418" lon="6.19496">
        <ele>1637</ele>
        <time>2019-01-25T09:14:00Z</time>
      </trkpt>
      <trkpt lat="45.27406" lon="6.19476">
        <ele>1642</ele>
        <time>2019-01-25T09:14:31Z</time>
      </trkpt>
      <trkpt lat="45.27403" lon="6.1945">
        <ele>1645</ele>
        <time>2019-01-25T09:14:59Z</time>
      </trkpt>
      <trkpt lat="45.27392" lon="6.19427">
        <ele>1647</ele>
        <time>2019-01-25T09:15:27Z</time>
      </trkpt>
      <trkpt lat="45.27376" lon="6.19412">
        <ele>1665</ele>
        <time>2019-01-25T09:15:59Z</time>
      </trkpt>
      <trkpt lat="45.27362" lon="6.19394">
        <ele>1668</ele>
        <time>2019-01-25T09:16:33Z</time>
      </trkpt>
      <trkpt lat="45.27344" lon="6.19384">
        <ele>1671</ele>
        <time>2019-01-25T09:17:08Z</time>
      </trkpt>
      <trkpt lat="45.2733" lon="6.19365">
        <ele>1679</ele>
        <time>2019-01-25T09:17:42Z</time>
      </trkpt>
      <trkpt lat="45.27314" lon="6.19353">
        <ele>1681</ele>
        <time>2019-01-25T09:18:08Z</time>
      </trkpt>
      <trkpt lat="45.27333" lon="6.19354">
        <ele>1683</ele>
        <time>2019-01-25T09:18:50Z</time>
      </trkpt>
      <trkpt lat="45.27351" lon="6.1935">
        <ele>1680</ele>
        <time>2019-01-25T09:19:20Z</time>
      </trkpt>
      <trkpt lat="45.27368" lon="6.19338">
        <ele>1678</ele>
        <time>2019-01-25T09:19:50Z</time>
      </trkpt>
      <trkpt lat="45.27357" lon="6.19318">
        <ele>1698</ele>
        <time>2019-01-25T09:20:36Z</time>
      </trkpt>
      <trkpt lat="45.27351" lon="6.19293">
        <ele>1702</ele>
        <time>2019-01-25T09:21:08Z</time>
      </trkpt>
      <trkpt lat="45.27353" lon="6.19267">
        <ele>1708</ele>
        <time>2019-01-25T09:21:38Z</time>
      </trkpt>
      <trkpt lat="45.27349" lon="6.19241">
        <ele>1725</ele>
        <time>2019-01-25T09:22:14Z</time>
      </trkpt>
      <trkpt lat="45.27337" lon="6.19222">
        <ele>1728</ele>
        <time>2019-01-25T09:22:50Z</time>
      </trkpt>
      <trkpt lat="45.27323" lon="6.19205">
        <ele>1738</ele>
        <time>2019-01-25T09:23:16Z</time>
      </trkpt>
      <trkpt lat="45.27305" lon="6.19194">
        <ele>1740</ele>
        <time>2019-01-25T09:23:48Z</time>
      </trkpt>
      <trkpt lat="45.27289" lon="6.1918">
        <ele>1742</ele>
        <time>2019-01-25T09:24:20Z</time>
      </trkpt>
      <trkpt lat="45.27276" lon="6.19162">
        <ele>1760</ele>
        <time>2019-01-25T09:24:50Z</time>
      </trkpt>
      <trkpt lat="45.27262" lon="6.19143">
        <ele>1762</ele>
        <time>2019-01-25T09:25:22Z</time>
      </trkpt>
      <trkpt lat="45.2725" lon="6.19124">
        <ele>1766</ele>
        <time>2019-01-25T09:25:52Z</time>
      </trkpt>
      <trkpt lat="45.27237" lon="6.19105">
        <ele>1766</ele>
        <time>2019-01-25T09:26:22Z</time>
      </trkpt>
      <trkpt lat="45.27227" lon="6.19083">
        <ele>1782</ele>
        <time>2019-01-25T09:27:02Z</time>
      </trkpt>
      <trkpt lat="45.27219" lon="6.19059">
        <ele>1785</ele>
        <time>2019-01-25T09:27:50Z</time>
      </trkpt>
      <trkpt lat="45.27208" lon="6.19038">
        <ele>1787</ele>
        <time>2019-01-25T09:31:44Z</time>
      </trkpt>
      <trkpt lat="45.27198" lon="6.19016">
        <ele>1789</ele>
        <time>2019-01-25T09:32:24Z</time>
      </trkpt>
      <trkpt lat="45.27188" lon="6.18994">
        <ele>1803</ele>
        <time>2019-01-25T09:32:52Z</time>
      </trkpt>
      <trkpt lat="45.2718" lon="6.1897">
        <ele>1806</ele>
        <time>2019-01-25T09:33:17Z</time>
      </trkpt>
      <trkpt lat="45.27172" lon="6.18946">
        <ele>1810</ele>
        <time>2019-01-25T09:33:51Z</time>
      </trkpt>
      <trkpt lat="45.27164" lon="6.18922">
        <ele>1804</ele>
        <time>2019-01-25T09:34:21Z</time>
      </trkpt>
      <trkpt lat="45.27152" lon="6.18903">
        <ele>1808</ele>
        <time>2019-01-25T09:34:45Z</time>
      </trkpt>
      <trkpt lat="45.27141" lon="6.18881">
        <ele>1809</ele>
        <time>2019-01-25T09:35:09Z</time>
      </trkpt>
      <trkpt lat="45.27135" lon="6.18856">
        <ele>1813</ele>
        <time>2019-01-25T09:35:37Z</time>
      </trkpt>
      <trkpt lat="45.27132" lon="6.18829">
        <ele>1830</ele>
        <time>2019-01-25T09:35:55Z</time>
      </trkpt>
      <trkpt lat="45.27124" lon="6.18805">
        <ele>1829</ele>
        <time>2019-01-25T09:36:13Z</time>
      </trkpt>
      <trkpt lat="45.27116" lon="6.18782">
        <ele>1831</ele>
        <time>2019-01-25T09:36:31Z</time>
      </trkpt>
      <trkpt lat="45.27105" lon="6.18757">
        <ele>1830</ele>
        <time>2019-01-25T09:36:45Z</time>
      </trkpt>
      <trkpt lat="45.27094" lon="6.18735">
        <ele>1840</ele>
        <time>2019-01-25T09:37:03Z</time>
      </trkpt>
      <trkpt lat="45.27081" lon="6.18718">
        <ele>1824</ele>
        <time>2019-01-25T09:37:21Z</time>
      </trkpt>
      <trkpt lat="45.2707" lon="6.18695">
        <ele>1827</ele>
        <time>2019-01-25T09:37:41Z</time>
      </trkpt>
      <trkpt lat="45.27063" lon="6.18671">
        <ele>1831</ele>
        <time>2019-01-25T09:38:01Z</time>
      </trkpt>
      <trkpt lat="45.27055" lon="6.18646">
        <ele>1842</ele>
        <time>2019-01-25T09:38:23Z</time>
      </trkpt>
      <trkpt lat="45.27048" lon="6.18621">
        <ele>1844</ele>
        <time>2019-01-25T09:38:45Z</time>
      </trkpt>
      <trkpt lat="45.27039" lon="6.18597">
        <ele>1845</ele>
        <time>2019-01-25T09:39:05Z</time>
      </trkpt>
      <trkpt lat="45.27028" lon="6.18575">
        <ele>1856</ele>
        <time>2019-01-25T09:39:27Z</time>
      </trkpt>
      <trkpt lat="45.27018" lon="6.18553">
        <ele>1856</ele>
        <time>2019-01-25T09:39:53Z</time>
      </trkpt>
      <trkpt lat="45.2701" lon="6.18529">
        <ele>1858</ele>
        <time>2019-01-25T09:40:13Z</time>
      </trkpt>
      <trkpt lat="45.27009" lon="6.18503">
        <ele>1855</ele>
        <time>2019-01-25T09:40:39Z</time>
      </trkpt>
      <trkpt lat="45.27002" lon="6.1848">
        <ele>1865</ele>
        <time>2019-01-25T09:41:03Z</time>
      </trkpt>
      <trkpt lat="45.27" lon="6.18453">
        <ele>1871</ele>
        <time>2019-01-25T09:41:33Z</time>
      </trkpt>
      <trkpt lat="45.27001" lon="6.18427">
        <ele>1870</ele>
        <time>2019-01-25T09:42:03Z</time>
      </trkpt>
      <trkpt lat="45.27" lon="6.18399">
        <ele>1879</ele>
        <time>2019-01-25T09:42:31Z</time>
      </trkpt>
      <trkpt lat="45.27002" lon="6.18372">
        <ele>1886</ele>
        <time>2019-01-25T09:42:59Z</time>
      </trkpt>
      <trkpt lat="45.27001" lon="6.18345">
        <ele>1885</ele>
        <time>2019-01-25T09:43:23Z</time>
      </trkpt>
      <trkpt lat="45.26996" lon="6.1832">
        <ele>1881</ele>
        <time>2019-01-25T09:43:47Z</time>
      </trkpt>
      <trkpt lat="45.26989" lon="6.18297">
        <ele>1882</ele>
        <time>2019-01-25T09:44:35Z</time>
      </trkpt>
      <trkpt lat="45.26984" lon="6.18271">
        <ele>1884</ele>
        <time>2019-01-25T09:44:57Z</time>
      </trkpt>
      <trkpt lat="45.26978" lon="6.18244">
        <ele>1894</ele>
        <time>2019-01-25T09:45:21Z</time>
      </trkpt>
      <trkpt lat="45.26972" lon="6.18218">
        <ele>1897</ele>
        <time>2019-01-25T09:45:49Z</time>
      </trkpt>
      <trkpt lat="45.26967" lon="6.18193">
        <ele>1900</ele>
        <time>2019-01-25T09:46:15Z</time>
      </trkpt>
      <trkpt lat="45.26956" lon="6.18171">
        <ele>1902</ele>
        <time>2019-01-25T09:46:51Z</time>
      </trkpt>
      <trkpt lat="45.26939" lon="6.18159">
        <ele>1916</ele>
        <time>2019-01-25T09:47:21Z</time>
      </trkpt>
      <trkpt lat="45.26936" lon="6.18133">
        <ele>1920</ele>
        <time>2019-01-25T09:48:15Z</time>
      </trkpt>
      <trkpt lat="45.26922" lon="6.18116">
        <ele>1923</ele>
        <time>2019-01-25T09:49:15Z</time>
      </trkpt>
      <trkpt lat="45.26904" lon="6.18108">
        <ele>1933</ele>
        <time>2019-01-25T09:49:53Z</time>
      </trkpt>
      <trkpt lat="45.26904" lon="6.18083">
        <ele>1940</ele>
        <time>2019-01-25T09:50:37Z</time>
      </trkpt>
      <trkpt lat="45.26912" lon="6.1806">
        <ele>1944</ele>
        <time>2019-01-25T09:51:17Z</time>
      </trkpt>
      <trkpt lat="45.26919" lon="6.18035">
        <ele>1945</ele>
        <time>2019-01-25T09:51:45Z</time>
      </trkpt>
      <trkpt lat="45.2693" lon="6.18014">
        <ele>1947</ele>
        <time>2019-01-25T09:52:13Z</time>
      </trkpt>
      <trkpt lat="45.26925" lon="6.17987">
        <ele>1954</ele>
        <time>2019-01-25T09:52:43Z</time>
      </trkpt>
      <trkpt lat="45.2692" lon="6.17962">
        <ele>1959</ele>
        <time>2019-01-25T09:53:09Z</time>
      </trkpt>
      <trkpt lat="45.26918" lon="6.17936">
        <ele>1960</ele>
        <time>2019-01-25T09:53:39Z</time>
      </trkpt>
      <trkpt lat="45.26927" lon="6.17913">
        <ele>1966</ele>
        <time>2019-01-25T09:54:09Z</time>
      </trkpt>
      <trkpt lat="45.26931" lon="6.17887">
        <ele>1975</ele>
        <time>2019-01-25T09:54:41Z</time>
      </trkpt>
      <trkpt lat="45.26933" lon="6.1786">
        <ele>1980</ele>
        <time>2019-01-25T09:55:19Z</time>
      </trkpt>
      <trkpt lat="45.26934" lon="6.17834">
        <ele>1982</ele>
        <time>2019-01-25T09:55:53Z</time>
      </trkpt>
      <trkpt lat="45.26935" lon="6.17807">
        <ele>1996</ele>
        <time>2019-01-25T09:56:27Z</time>
      </trkpt>
      <trkpt lat="45.26933" lon="6.17782">
        <ele>2000</ele>
        <time>2019-01-25T09:57:03Z</time>
      </trkpt>
      <trkpt lat="45.26933" lon="6.17756">
        <ele>2001</ele>
        <time>2019-01-25T09:57:33Z</time>
      </trkpt>
      <trkpt lat="45.26932" lon="6.1773">
        <ele>2015</ele>
        <time>2019-01-25T09:58:05Z</time>
      </trkpt>
      <trkpt lat="45.26949" lon="6.17721">
        <ele>2020</ele>
        <time>2019-01-25T09:58:57Z</time>
      </trkpt>
      <trkpt lat="45.26951" lon="6.17694">
        <ele>2024</ele>
        <time>2019-01-25T09:59:43Z</time>
      </trkpt>
      <trkpt lat="45.2695" lon="6.17668">
        <ele>2026</ele>
        <time>2019-01-25T10:00:23Z</time>
      </trkpt>
      <trkpt lat="45.26964" lon="6.17651">
        <ele>2044</ele>
        <time>2019-01-25T10:01:37Z</time>
      </trkpt>
      <trkpt lat="45.26962" lon="6.17625">
        <ele>2047</ele>
        <time>2019-01-25T10:02:15Z</time>
      </trkpt>
      <trkpt lat="45.26958" lon="6.17599">
        <ele>2050</ele>
        <time>2019-01-25T10:02:53Z</time>
      </trkpt>
      <trkpt lat="45.26969" lon="6.17578">
        <ele>2067</ele>
        <time>2019-01-25T10:04:13Z</time>
      </trkpt>
      <trkpt lat="45.26966" lon="6.17552">
        <ele>2070</ele>
        <time>2019-01-25T10:05:03Z</time>
      </trkpt>
      <trkpt lat="45.26962" lon="6.17526">
        <ele>2074</ele>
        <time>2019-01-25T10:06:19Z</time>
      </trkpt>
      <trkpt lat="45.26963" lon="6.175">
        <ele>2091</ele>
        <time>2019-01-25T10:07:49Z</time>
      </trkpt>
      <trkpt lat="45.26972" lon="6.17476">
        <ele>2092</ele>
        <time>2019-01-25T10:08:49Z</time>
      </trkpt>
      <trkpt lat="45.26972" lon="6.1745">
        <ele>2096</ele>
        <time>2019-01-25T10:09:25Z</time>
      </trkpt>
      <trkpt lat="45.26976" lon="6.17425">
        <ele>2099</ele>
        <time>2019-01-25T10:09:59Z</time>
      </trkpt>
      <trkpt lat="45.26978" lon="6.17398">
        <ele>2111</ele>
        <time>2019-01-25T10:10:33Z</time>
      </trkpt>
      <trkpt lat="45.26985" lon="6.17373">
        <ele>2113</ele>
        <time>2019-01-25T10:11:01Z</time>
      </trkpt>
      <trkpt lat="45.26992" lon="6.17349">
        <ele>2115</ele>
        <time>2019-01-25T10:11:35Z</time>
      </trkpt>
      <trkpt lat="45.26998" lon="6.17324">
        <ele>2121</ele>
        <time>2019-01-25T10:12:07Z</time>
      </trkpt>
      <trkpt lat="45.27002" lon="6.17299">
        <ele>2137</ele>
        <time>2019-01-25T10:12:45Z</time>
      </trkpt>
      <trkpt lat="45.27004" lon="6.17273">
        <ele>2139</ele>
        <time>2019-01-25T10:13:21Z</time>
      </trkpt>
      <trkpt lat="45.2701" lon="6.17249">
        <ele>2141</ele>
        <time>2019-01-25T10:13:59Z</time>
      </trkpt>
      <trkpt lat="45.27013" lon="6.17223">
        <ele>2152</ele>
        <time>2019-01-25T10:14:39Z</time>
      </trkpt>
      <trkpt lat="45.27015" lon="6.17197">
        <ele>2157</ele>
        <time>2019-01-25T10:15:19Z</time>
      </trkpt>
      <trkpt lat="45.27018" lon="6.17171">
        <ele>2157</ele>
        <time>2019-01-25T10:16:05Z</time>
      </trkpt>
      <trkpt lat="45.2702" lon="6.17144">
        <ele>2171</ele>
        <time>2019-01-25T10:16:41Z</time>
      </trkpt>
      <trkpt lat="45.27015" lon="6.17118">
        <ele>2175</ele>
        <time>2019-01-25T10:17:15Z</time>
      </trkpt>
      <trkpt lat="45.27007" lon="6.17094">
        <ele>2175</ele>
        <time>2019-01-25T10:17:45Z</time>
      </trkpt>
      <trkpt lat="45.27024" lon="6.17087">
        <ele>2178</ele>
        <time>2019-01-25T10:18:21Z</time>
      </trkpt>
      <trkpt lat="45.27016" lon="6.17064">
        <ele>2190</ele>
        <time>2019-01-25T10:18:55Z</time>
      </trkpt>
      <trkpt lat="45.27024" lon="6.1704">
        <ele>2197</ele>
        <time>2019-01-25T10:19:55Z</time>
      </trkpt>
      <trkpt lat="45.27019" lon="6.17015">
        <ele>2199</ele>
        <time>2019-01-25T10:20:47Z</time>
      </trkpt>
      <trkpt lat="45.27015" lon="6.16989">
        <ele>2212</ele>
        <time>2019-01-25T10:21:53Z</time>
      </trkpt>
      <trkpt lat="45.2702" lon="6.16965">
        <ele>2220</ele>
        <time>2019-01-25T10:23:28Z</time>
      </trkpt>
      <trkpt lat="45.27005" lon="6.16949">
        <ele>2223</ele>
        <time>2019-01-25T10:24:46Z</time>
      </trkpt>
      <trkpt lat="45.26988" lon="6.16939">
        <ele>2226</ele>
        <time>2019-01-25T10:25:24Z</time>
      </trkpt>
      <trkpt lat="45.26975" lon="6.1692">
        <ele>2228</ele>
        <time>2019-01-25T10:27:02Z</time>
      </trkpt>
      <trkpt lat="45.26964" lon="6.16899">
        <ele>2246</ele>
        <time>2019-01-25T10:27:46Z</time>
      </trkpt>
      <trkpt lat="45.2696" lon="6.16874">
        <ele>2250</ele>
        <time>2019-01-25T10:28:42Z</time>
      </trkpt>
      <trkpt lat="45.26954" lon="6.16848">
        <ele>2253</ele>
        <time>2019-01-25T10:29:30Z</time>
      </trkpt>
      <trkpt lat="45.26965" lon="6.16826">
        <ele>2270</ele>
        <time>2019-01-25T10:30:22Z</time>
      </trkpt>
      <trkpt lat="45.26956" lon="6.16803">
        <ele>2275</ele>
        <time>2019-01-25T10:40:02Z</time>
      </trkpt>
      <trkpt lat="45.26947" lon="6.1678">
        <ele>2280</ele>
        <time>2019-01-25T10:40:58Z</time>
      </trkpt>
      <trkpt lat="45.26947" lon="6.16754">
        <ele>2284</ele>
        <time>2019-01-25T10:41:48Z</time>
      </trkpt>
      <trkpt lat="45.26952" lon="6.16728">
        <ele>2301</ele>
        <time>2019-01-25T10:42:32Z</time>
      </trkpt>
      <trkpt lat="45.26935" lon="6.16719">
        <ele>2302</ele>
        <time>2019-01-25T10:43:08Z</time>
      </trkpt>
      <trkpt lat="45.26932" lon="6.16693">
        <ele>2306</ele>
        <time>2019-01-25T10:44:14Z</time>
      </trkpt>
      <trkpt lat="45.26921" lon="6.16672">
        <ele>2311</ele>
        <time>2019-01-25T10:45:06Z</time>
      </trkpt>
      <trkpt lat="45.26903" lon="6.16671">
        <ele>2320</ele>
        <time>2019-01-25T10:46:14Z</time>
      </trkpt>
      <trkpt lat="45.26887" lon="6.16659">
        <ele>2333</ele>
        <time>2019-01-25T10:47:26Z</time>
      </trkpt>
      <trkpt lat="45.26868" lon="6.16657">
        <ele>2340</ele>
        <time>2019-01-25T10:48:30Z</time>
      </trkpt>
      <trkpt lat="45.26852" lon="6.1667">
        <ele>2339</ele>
        <time>2019-01-25T10:49:58Z</time>
      </trkpt>
      <trkpt lat="45.26847" lon="6.16645">
        <ele>2345</ele>
        <time>2019-01-25T10:50:44Z</time>
      </trkpt>
      <trkpt lat="45.26845" lon="6.16619">
        <ele>2346</ele>
        <time>2019-01-25T10:51:26Z</time>
      </trkpt>
      <trkpt lat="45.26834" lon="6.16597">
        <ele>2352</ele>
        <time>2019-01-25T10:52:46Z</time>
      </trkpt>
      <trkpt lat="45.26819" lon="6.16581">
        <ele>2374</ele>
        <time>2019-01-25T10:54:08Z</time>
      </trkpt>
      <trkpt lat="45.26803" lon="6.16593">
        <ele>2374</ele>
        <time>2019-01-25T10:55:04Z</time>
      </trkpt>
      <trkpt lat="45.26784" lon="6.16597">
        <ele>2380</ele>
        <time>2019-01-25T10:56:12Z</time>
      </trkpt>
      <trkpt lat="45.26775" lon="6.16622">
        <ele>2380</ele>
        <time>2019-01-25T10:56:52Z</time>
      </trkpt>
      <trkpt lat="45.26766" lon="6.16646">
        <ele>2381</ele>
        <time>2019-01-25T10:57:28Z</time>
      </trkpt>
      <trkpt lat="45.26756" lon="6.16669">
        <ele>2383</ele>
        <time>2019-01-25T10:57:48Z</time>
      </trkpt>
      <trkpt lat="45.26752" lon="6.16695">
        <ele>2373</ele>
        <time>2019-01-25T10:58:16Z</time>
      </trkpt>
      <trkpt lat="45.26738" lon="6.16716">
        <ele>2402</ele>
        <time>2019-01-25T10:58:46Z</time>
      </trkpt>
      <trkpt lat="45.26725" lon="6.16738">
        <ele>2401</ele>
        <time>2019-01-25T10:59:02Z</time>
      </trkpt>
      <trkpt lat="45.26714" lon="6.16759">
        <ele>2391</ele>
        <time>2019-01-25T10:59:18Z</time>
      </trkpt>
      <trkpt lat="45.26705" lon="6.16782">
        <ele>2393</ele>
        <time>2019-01-25T10:59:38Z</time>
      </trkpt>
      <trkpt lat="45.26699" lon="6.16806">
        <ele>2392</ele>
        <time>2019-01-25T10:59:58Z</time>
      </trkpt>
      <trkpt lat="45.26701" lon="6.16832">
        <ele>2390</ele>
        <time>2019-01-25T11:00:48Z</time>
      </trkpt>
      <trkpt lat="45.26685" lon="6.16846">
        <ele>2387</ele>
        <time>2019-01-25T11:03:26Z</time>
      </trkpt>
      <trkpt lat="45.26671" lon="6.16828">
        <ele>2402</ele>
        <time>2019-01-25T11:04:38Z</time>
      </trkpt>
      <trkpt lat="45.26661" lon="6.16852">
        <ele>2411</ele>
        <time>2019-01-25T11:06:18Z</time>
      </trkpt>
      <trkpt lat="45.26654" lon="6.16877">
        <ele>2412</ele>
        <time>2019-01-25T11:06:56Z</time>
      </trkpt>
      <trkpt lat="45.26643" lon="6.16898">
        <ele>2411</ele>
        <time>2019-01-25T11:07:31Z</time>
      </trkpt>
      <trkpt lat="45.26633" lon="6.1692">
        <ele>2402</ele>
        <time>2019-01-25T11:08:19Z</time>
      </trkpt>
      <trkpt lat="45.26622" lon="6.1694">
        <ele>2402</ele>
        <time>2019-01-25T11:08:41Z</time>
      </trkpt>
      <trkpt lat="45.26613" lon="6.16963">
        <ele>2401</ele>
        <time>2019-01-25T11:09:13Z</time>
      </trkpt>
      <trkpt lat="45.26622" lon="6.16939">
        <ele>2402</ele>
        <time>2019-01-25T11:12:30Z</time>
      </trkpt>
      <trkpt lat="45.26636" lon="6.1692">
        <ele>2401</ele>
        <time>2019-01-25T11:12:58Z</time>
      </trkpt>
      <trkpt lat="45.26642" lon="6.16895">
        <ele>2412</ele>
        <time>2019-01-25T11:13:16Z</time>
      </trkpt>
      <trkpt lat="45.26639" lon="6.16869">
        <ele>2415</ele>
        <time>2019-01-25T11:13:42Z</time>
      </trkpt>
      <trkpt lat="45.26632" lon="6.16845">
        <ele>2418</ele>
        <time>2019-01-25T11:14:20Z</time>
      </trkpt>
      <trkpt lat="45.26624" lon="6.16821">
        <ele>2438</ele>
        <time>2019-01-25T11:17:02Z</time>
      </trkpt>
      <trkpt lat="45.26607" lon="6.16815">
        <ele>2443</ele>
        <time>2019-01-25T11:17:42Z</time>
      </trkpt>
      <trkpt lat="45.26613" lon="6.16791">
        <ele>2446</ele>
        <time>2019-01-25T11:18:48Z</time>
      </trkpt>
      <trkpt lat="45.26595" lon="6.16779">
        <ele>2455</ele>
        <time>2019-01-25T11:19:48Z</time>
      </trkpt>
      <trkpt lat="45.26595" lon="6.16753">
        <ele>2471</ele>
        <time>2019-01-25T11:21:44Z</time>
      </trkpt>
      <trkpt lat="45.26592" lon="6.16727">
        <ele>2485</ele>
        <time>2019-01-25T11:23:54Z</time>
      </trkpt>
      <trkpt lat="45.26579" lon="6.16708">
        <ele>2515</ele>
        <time>2019-01-25T11:25:41Z</time>
      </trkpt>
      <trkpt lat="45.26581" lon="6.16682">
        <ele>2522</ele>
        <time>2019-01-25T11:32:18Z</time>
      </trkpt>
      <trkpt lat="45.26564" lon="6.16676">
        <ele>2523</ele>
        <time>2019-01-25T11:33:38Z</time>
      </trkpt>
      <trkpt lat="45.26546" lon="6.16663">
        <ele>2534</ele>
        <time>2019-01-25T11:36:04Z</time>
      </trkpt>
      <trkpt lat="45.26542" lon="6.16638">
        <ele>2535</ele>
        <time>2019-01-25T11:38:34Z</time>
      </trkpt>
      <trkpt lat="45.26547" lon="6.16613">
        <ele>2535</ele>
        <time>2019-01-25T11:40:32Z</time>
      </trkpt>
      <trkpt lat="45.26533" lon="6.16594">
        <ele>2535</ele>
        <time>2019-01-25T11:46:03Z</time>
      </trkpt>
      <trkpt lat="45.26514" lon="6.16597">
        <ele>2536</ele>
        <time>2019-01-25T11:48:49Z</time>
      </trkpt>
      <trkpt lat="45.26496" lon="6.16598">
        <ele>2543</ele>
        <time>2019-01-25T11:49:05Z</time>
      </trkpt>
      <trkpt lat="45.26478" lon="6.16603">
        <ele>2543</ele>
        <time>2019-01-25T11:49:21Z</time>
      </trkpt>
      <trkpt lat="45.26459" lon="6.1661">
        <ele>2543</ele>
        <time>2019-01-25T11:49:45Z</time>
      </trkpt>
      <trkpt lat="45.26443" lon="6.16619">
        <ele>2543</ele>
        <time>2019-01-25T11:50:31Z</time>
      </trkpt>
      <trkpt lat="45.26445" lon="6.16593">
        <ele>2543</ele>
        <time>2019-01-25T11:52:49Z</time>
      </trkpt>
      <trkpt lat="45.26432" lon="6.16574">
        <ele>2576.88</ele>
        <time>2019-01-25T11:53:33Z</time>
      </trkpt>
      <trkpt lat="45.2642" lon="6.16552">
        <ele>2585.88</ele>
        <time>2019-01-25T11:54:39Z</time>
      </trkpt>
      <trkpt lat="45.26402" lon="6.16556">
        <ele>2594.88</ele>
        <time>2019-01-25T11:55:23Z</time>
      </trkpt>
      <trkpt lat="45.26403" lon="6.1653">
        <ele>2605.88</ele>
        <time>2019-01-25T11:56:51Z</time>
      </trkpt>
      <trkpt lat="45.26387" lon="6.16518">
        <ele>2620.88</ele>
        <time>2019-01-25T11:57:51Z</time>
      </trkpt>
      <trkpt lat="45.26389" lon="6.16493">
        <ele>2631.88</ele>
        <time>2019-01-25T11:59:00Z</time>
      </trkpt>
      <trkpt lat="45.26391" lon="6.16466">
        <ele>2636.88</ele>
        <time>2019-01-25T12:00:12Z</time>
      </trkpt>
      <trkpt lat="45.26375" lon="6.16452">
        <ele>2644.88</ele>
        <time>2019-01-25T12:01:04Z</time>
      </trkpt>
      <trkpt lat="45.26381" lon="6.16427">
        <ele>2649.88</ele>
        <time>2019-01-25T12:01:56Z</time>
      </trkpt>
      <trkpt lat="45.26392" lon="6.16407">
        <ele>2658.88</ele>
        <time>2019-01-25T12:02:46Z</time>
      </trkpt>
      <trkpt lat="45.26375" lon="6.16395">
        <ele>2663.88</ele>
        <time>2019-01-25T12:03:13Z</time>
      </trkpt>
      <trkpt lat="45.26374" lon="6.16369">
        <ele>2676.88</ele>
        <time>2019-01-25T12:04:23Z</time>
      </trkpt>
      <trkpt lat="45.26369" lon="6.16343">
        <ele>2687.88</ele>
        <time>2019-01-25T12:05:37Z</time>
      </trkpt>
      <trkpt lat="45.26374" lon="6.16317">
        <ele>2693.88</ele>
        <time>2019-01-25T12:06:35Z</time>
      </trkpt>
      <trkpt lat="45.26365" lon="6.16295">
        <ele>2700.88</ele>
        <time>2019-01-25T12:07:09Z</time>
      </trkpt>
      <trkpt lat="45.26383" lon="6.16284">
        <ele>2699.88</ele>
        <time>2019-01-25T12:07:53Z</time>
      </trkpt>
      <trkpt lat="45.26394" lon="6.16263">
        <ele>2713.88</ele>
        <time>2019-01-25T12:08:55Z</time>
      </trkpt>
      <trkpt lat="45.26385" lon="6.16239">
        <ele>2721.88</ele>
        <time>2019-01-25T12:09:49Z</time>
      </trkpt>
      <trkpt lat="45.26369" lon="6.16228">
        <ele>2724.88</ele>
        <time>2019-01-25T12:10:23Z</time>
      </trkpt>
      <trkpt lat="45.26353" lon="6.16211">
        <ele>2729.88</ele>
        <time>2019-01-25T12:10:57Z</time>
      </trkpt>
      <trkpt lat="45.26363" lon="6.16189">
        <ele>2728.88</ele>
        <time>2019-01-25T12:11:57Z</time>
      </trkpt>
      <trkpt lat="45.26366" lon="6.16162">
        <ele>2735.88</ele>
        <time>2019-01-25T12:13:07Z</time>
      </trkpt>
      <trkpt lat="45.26359" lon="6.16136">
        <ele>2736.88</ele>
        <time>2019-01-25T12:14:31Z</time>
      </trkpt>
      <trkpt lat="45.26348" lon="6.16158">
        <ele>2735.88</ele>
        <time>2019-01-25T12:16:47Z</time>
      </trkpt>
      <trkpt lat="45.26345" lon="6.16185">
        <ele>2730.88</ele>
        <time>2019-01-25T12:17:06Z</time>
      </trkpt>
      <trkpt lat="45.26334" lon="6.16208">
        <ele>2726.88</ele>
        <time>2019-01-25T12:17:30Z</time>
      </trkpt>
      <trkpt lat="45.26317" lon="6.16219">
        <ele>2722.88</ele>
        <time>2019-01-25T12:19:26Z</time>
      </trkpt>
      <trkpt lat="45.26311" lon="6.16244">
        <ele>2722.88</ele>
        <time>2019-01-25T12:19:44Z</time>
      </trkpt>
      <trkpt lat="45.26312" lon="6.16271">
        <ele>2723.88</ele>
        <time>2019-01-25T12:20:08Z</time>
      </trkpt>
      <trkpt lat="45.26296" lon="6.16285">
        <ele>2729.88</ele>
        <time>2019-01-25T12:21:48Z</time>
      </trkpt>
      <trkpt lat="45.26295" lon="6.16259">
        <ele>2725.88</ele>
        <time>2019-01-25T12:22:14Z</time>
      </trkpt>
      <trkpt lat="45.26308" lon="6.16238">
        <ele>2723.88</ele>
        <time>2019-01-25T12:22:29Z</time>
      </trkpt>
      <trkpt lat="45.26322" lon="6.16219">
        <ele>2722.88</ele>
        <time>2019-01-25T12:22:45Z</time>
      </trkpt>
      <trkpt lat="45.26337" lon="6.16205">
        <ele>2722.88</ele>
        <time>2019-01-25T12:23:05Z</time>
      </trkpt>
      <trkpt lat="45.26348" lon="6.16183">
        <ele>2728.88</ele>
        <time>2019-01-25T12:23:29Z</time>
      </trkpt>
      <trkpt lat="45.2635" lon="6.16157">
        <ele>2733.88</ele>
        <time>2019-01-25T12:23:53Z</time>
      </trkpt>
      <trkpt lat="45.26341" lon="6.1618">
        <ele>2731.88</ele>
        <time>2019-01-25T12:54:35Z</time>
      </trkpt>
      <trkpt lat="45.26332" lon="6.16206">
        <ele>2731.88</ele>
        <time>2019-01-25T12:54:51Z</time>
      </trkpt>
      <trkpt lat="45.2632" lon="6.16227">
        <ele>2727.88</ele>
        <time>2019-01-25T12:55:16Z</time>
      </trkpt>
      <trkpt lat="45.26305" lon="6.16242">
        <ele>2727.88</ele>
        <time>2019-01-25T12:55:37Z</time>
      </trkpt>
      <trkpt lat="45.26284" lon="6.16245">
        <ele>2726.88</ele>
        <time>2019-01-25T12:56:19Z</time>
      </trkpt>
      <trkpt lat="45.26265" lon="6.16241">
        <ele>2726.88</ele>
        <time>2019-01-25T12:56:45Z</time>
      </trkpt>
      <trkpt lat="45.26245" lon="6.16241">
        <ele>2719.88</ele>
        <time>2019-01-25T12:57:39Z</time>
      </trkpt>
      <trkpt lat="45.26225" lon="6.16251">
        <ele>2712.88</ele>
        <time>2019-01-25T12:58:05Z</time>
      </trkpt>
      <trkpt lat="45.26207" lon="6.16253">
        <ele>2707.88</ele>
        <time>2019-01-25T12:58:11Z</time>
      </trkpt>
      <trkpt lat="45.26188" lon="6.16262">
        <ele>2701.88</ele>
        <time>2019-01-25T12:58:21Z</time>
      </trkpt>
      <trkpt lat="45.26177" lon="6.16283">
        <ele>2689.88</ele>
        <time>2019-01-25T12:59:27Z</time>
      </trkpt>
      <trkpt lat="45.2617" lon="6.16307">
        <ele>2682.88</ele>
        <time>2019-01-25T13:01:11Z</time>
      </trkpt>
      <trkpt lat="45.26166" lon="6.16282">
        <ele>2674.88</ele>
        <time>2019-01-25T13:01:57Z</time>
      </trkpt>
      <trkpt lat="45.26162" lon="6.16253">
        <ele>2665.88</ele>
        <time>2019-01-25T13:02:28Z</time>
      </trkpt>
      <trkpt lat="45.26146" lon="6.16233">
        <ele>2657.88</ele>
        <time>2019-01-25T13:02:56Z</time>
      </trkpt>
      <trkpt lat="45.26126" lon="6.16226">
        <ele>2650.88</ele>
        <time>2019-01-25T13:03:06Z</time>
      </trkpt>
      <trkpt lat="45.26126" lon="6.16198">
        <ele>2635.88</ele>
        <time>2019-01-25T13:04:00Z</time>
      </trkpt>
      <trkpt lat="45.26112" lon="6.16179">
        <ele>2628.88</ele>
        <time>2019-01-25T13:04:08Z</time>
      </trkpt>
      <trkpt lat="45.26116" lon="6.16143">
        <ele>2615.88</ele>
        <time>2019-01-25T13:04:18Z</time>
      </trkpt>
      <trkpt lat="45.26114" lon="6.16115">
        <ele>2608.88</ele>
        <time>2019-01-25T13:04:24Z</time>
      </trkpt>
      <trkpt lat="45.26119" lon="6.16086">
        <ele>2603.88</ele>
        <time>2019-01-25T13:04:32Z</time>
      </trkpt>
      <trkpt lat="45.26119" lon="6.16059">
        <ele>2545</ele>
        <time>2019-01-25T13:04:46Z</time>
      </trkpt>
      <trkpt lat="45.26099" lon="6.16068">
        <ele>2545</ele>
        <time>2019-01-25T13:04:54Z</time>
      </trkpt>
      <trkpt lat="45.26084" lon="6.16046">
        <ele>2545</ele>
        <time>2019-01-25T13:05:02Z</time>
      </trkpt>
      <trkpt lat="45.26064" lon="6.16051">
        <ele>2530</ele>
        <time>2019-01-25T13:05:32Z</time>
      </trkpt>
      <trkpt lat="45.26046" lon="6.1605">
        <ele>2528</ele>
        <time>2019-01-25T13:05:38Z</time>
      </trkpt>
      <trkpt lat="45.26023" lon="6.16038">
        <ele>2525</ele>
        <time>2019-01-25T13:05:44Z</time>
      </trkpt>
      <trkpt lat="45.26004" lon="6.1603">
        <ele>2522</ele>
        <time>2019-01-25T13:05:48Z</time>
      </trkpt>
      <trkpt lat="45.26011" lon="6.16002">
        <ele>2517</ele>
        <time>2019-01-25T13:07:03Z</time>
      </trkpt>
      <trkpt lat="45.26009" lon="6.15977">
        <ele>2510</ele>
        <time>2019-01-25T13:07:07Z</time>
      </trkpt>
      <trkpt lat="45.26024" lon="6.15961">
        <ele>2509</ele>
        <time>2019-01-25T13:07:59Z</time>
      </trkpt>
      <trkpt lat="45.26045" lon="6.15942">
        <ele>2508</ele>
        <time>2019-01-25T13:08:25Z</time>
      </trkpt>
      <trkpt lat="45.26064" lon="6.15932">
        <ele>2508</ele>
        <time>2019-01-25T13:08:29Z</time>
      </trkpt>
      <trkpt lat="45.26082" lon="6.15914">
        <ele>2499</ele>
        <time>2019-01-25T13:08:33Z</time>
      </trkpt>
      <trkpt lat="45.2609" lon="6.15886">
        <ele>2501</ele>
        <time>2019-01-25T13:08:37Z</time>
      </trkpt>
      <trkpt lat="45.26101" lon="6.15865">
        <ele>2500</ele>
        <time>2019-01-25T13:17:47Z</time>
      </trkpt>
      <trkpt lat="45.26119" lon="6.15851">
        <ele>2500</ele>
        <time>2019-01-25T13:18:07Z</time>
      </trkpt>
      <trkpt lat="45.26135" lon="6.1584">
        <ele>2502</ele>
        <time>2019-01-25T13:18:27Z</time>
      </trkpt>
      <trkpt lat="45.26149" lon="6.15821">
        <ele>2499</ele>
        <time>2019-01-25T13:18:51Z</time>
      </trkpt>
      <trkpt lat="45.26162" lon="6.15804">
        <ele>2500</ele>
        <time>2019-01-25T13:19:51Z</time>
      </trkpt>
      <trkpt lat="45.2618" lon="6.15805">
        <ele>2516</ele>
        <time>2019-01-25T13:20:27Z</time>
      </trkpt>
      <trkpt lat="45.26172" lon="6.15782">
        <ele>2516</ele>
        <time>2019-01-25T13:21:01Z</time>
      </trkpt>
      <trkpt lat="45.26161" lon="6.15759">
        <ele>2503</ele>
        <time>2019-01-25T13:21:29Z</time>
      </trkpt>
      <trkpt lat="45.26175" lon="6.15741">
        <ele>2510</ele>
        <time>2019-01-25T13:22:15Z</time>
      </trkpt>
      <trkpt lat="45.26186" lon="6.15721">
        <ele>2512</ele>
        <time>2019-01-25T13:22:39Z</time>
      </trkpt>
      <trkpt lat="45.26205" lon="6.15715">
        <ele>2514</ele>
        <time>2019-01-25T13:23:06Z</time>
      </trkpt>
      <trkpt lat="45.2622" lon="6.15699">
        <ele>2515</ele>
        <time>2019-01-25T13:23:26Z</time>
      </trkpt>
      <trkpt lat="45.2623" lon="6.15676">
        <ele>2515</ele>
        <time>2019-01-25T13:23:44Z</time>
      </trkpt>
      <trkpt lat="45.2624" lon="6.15654">
        <ele>2510</ele>
        <time>2019-01-25T13:24:52Z</time>
      </trkpt>
      <trkpt lat="45.26255" lon="6.15635">
        <ele>2521</ele>
        <time>2019-01-25T13:25:08Z</time>
      </trkpt>
      <trkpt lat="45.26266" lon="6.15606">
        <ele>2518</ele>
        <time>2019-01-25T13:25:18Z</time>
      </trkpt>
      <trkpt lat="45.26265" lon="6.15579">
        <ele>2508</ele>
        <time>2019-01-25T13:25:36Z</time>
      </trkpt>
      <trkpt lat="45.26271" lon="6.15554">
        <ele>2510</ele>
        <time>2019-01-25T13:25:54Z</time>
      </trkpt>
      <trkpt lat="45.26283" lon="6.15532">
        <ele>2510</ele>
        <time>2019-01-25T13:26:12Z</time>
      </trkpt>
      <trkpt lat="45.26296" lon="6.15512">
        <ele>2511</ele>
        <time>2019-01-25T13:26:32Z</time>
      </trkpt>
      <trkpt lat="45.26313" lon="6.155">
        <ele>2511</ele>
        <time>2019-01-25T13:26:50Z</time>
      </trkpt>
      <trkpt lat="45.26324" lon="6.15477">
        <ele>2512</ele>
        <time>2019-01-25T13:27:12Z</time>
      </trkpt>
      <trkpt lat="45.26341" lon="6.1547">
        <ele>2524</ele>
        <time>2019-01-25T13:27:36Z</time>
      </trkpt>
      <trkpt lat="45.26353" lon="6.1545">
        <ele>2525</ele>
        <time>2019-01-25T13:28:10Z</time>
      </trkpt>
      <trkpt lat="45.26339" lon="6.15432">
        <ele>2522</ele>
        <time>2019-01-25T13:28:32Z</time>
      </trkpt>
      <trkpt lat="45.26349" lon="6.1541">
        <ele>2523</ele>
        <time>2019-01-25T13:29:22Z</time>
      </trkpt>
      <trkpt lat="45.26357" lon="6.15386">
        <ele>2526</ele>
        <time>2019-01-25T13:30:18Z</time>
      </trkpt>
      <trkpt lat="45.26356" lon="6.1536">
        <ele>2526</ele>
        <time>2019-01-25T13:30:42Z</time>
      </trkpt>
      <trkpt lat="45.26359" lon="6.15332">
        <ele>2525</ele>
        <time>2019-01-25T13:32:53Z</time>
      </trkpt>
      <trkpt lat="45.26364" lon="6.15306">
        <ele>2525</ele>
        <time>2019-01-25T13:33:11Z</time>
      </trkpt>
      <trkpt lat="45.26361" lon="6.15281">
        <ele>2523</ele>
        <time>2019-01-25T13:33:23Z</time>
      </trkpt>
      <trkpt lat="45.26361" lon="6.15253">
        <ele>2522</ele>
        <time>2019-01-25T13:33:37Z</time>
      </trkpt>
      <trkpt lat="45.26362" lon="6.15225">
        <ele>2518</ele>
        <time>2019-01-25T13:33:55Z</time>
      </trkpt>
      <trkpt lat="45.26367" lon="6.15201">
        <ele>2517</ele>
        <time>2019-01-25T13:34:15Z</time>
      </trkpt>
      <trkpt lat="45.26376" lon="6.15177">
        <ele>2517</ele>
        <time>2019-01-25T13:34:41Z</time>
      </trkpt>
      <trkpt lat="45.26387" lon="6.15156">
        <ele>2513</ele>
        <time>2019-01-25T13:35:11Z</time>
      </trkpt>
      <trkpt lat="45.26398" lon="6.15136">
        <ele>2513</ele>
        <time>2019-01-25T13:35:31Z</time>
      </trkpt>
      <trkpt lat="45.26395" lon="6.15107">
        <ele>2511</ele>
        <time>2019-01-25T13:47:33Z</time>
      </trkpt>
      <trkpt lat="45.26392" lon="6.1508">
        <ele>2507</ele>
        <time>2019-01-25T13:51:06Z</time>
      </trkpt>
      <trkpt lat="45.26389" lon="6.15047">
        <ele>2505</ele>
        <time>2019-01-25T13:51:12Z</time>
      </trkpt>
      <trkpt lat="45.26387" lon="6.15021">
        <ele>2503</ele>
        <time>2019-01-25T13:51:16Z</time>
      </trkpt>
      <trkpt lat="45.26398" lon="6.14998">
        <ele>2499</ele>
        <time>2019-01-25T13:51:44Z</time>
      </trkpt>
      <trkpt lat="45.26402" lon="6.14966">
        <ele>2500</ele>
        <time>2019-01-25T13:51:54Z</time>
      </trkpt>
      <trkpt lat="45.26421" lon="6.14955">
        <ele>2488</ele>
        <time>2019-01-25T13:51:58Z</time>
      </trkpt>
      <trkpt lat="45.26439" lon="6.14949">
        <ele>2486</ele>
        <time>2019-01-25T13:52:30Z</time>
      </trkpt>
      <trkpt lat="45.26448" lon="6.14925">
        <ele>2486</ele>
        <time>2019-01-25T13:52:58Z</time>
      </trkpt>
      <trkpt lat="45.26464" lon="6.14913">
        <ele>2486</ele>
        <time>2019-01-25T13:53:20Z</time>
      </trkpt>
      <trkpt lat="45.26485" lon="6.14915">
        <ele>2479</ele>
        <time>2019-01-25T13:53:36Z</time>
      </trkpt>
      <trkpt lat="45.26497" lon="6.14942">
        <ele>2477</ele>
        <time>2019-01-25T13:53:42Z</time>
      </trkpt>
      <trkpt lat="45.26518" lon="6.1496">
        <ele>2460</ele>
        <time>2019-01-25T13:53:46Z</time>
      </trkpt>
      <trkpt lat="45.26538" lon="6.14967">
        <ele>2456</ele>
        <time>2019-01-25T13:53:51Z</time>
      </trkpt>
      <trkpt lat="45.26558" lon="6.14973">
        <ele>2452</ele>
        <time>2019-01-25T13:54:07Z</time>
      </trkpt>
      <trkpt lat="45.2658" lon="6.14979">
        <ele>2447</ele>
        <time>2019-01-25T13:54:19Z</time>
      </trkpt>
      <trkpt lat="45.26595" lon="6.14997">
        <ele>2434</ele>
        <time>2019-01-25T13:54:25Z</time>
      </trkpt>
      <trkpt lat="45.26609" lon="6.15015">
        <ele>2431</ele>
        <time>2019-01-25T13:54:35Z</time>
      </trkpt>
      <trkpt lat="45.2663" lon="6.15024">
        <ele>2427</ele>
        <time>2019-01-25T13:54:41Z</time>
      </trkpt>
      <trkpt lat="45.26651" lon="6.15031">
        <ele>2424</ele>
        <time>2019-01-25T13:54:47Z</time>
      </trkpt>
      <trkpt lat="45.26666" lon="6.15047">
        <ele>2423</ele>
        <time>2019-01-25T13:54:55Z</time>
      </trkpt>
      <trkpt lat="45.26683" lon="6.15063">
        <ele>2400</ele>
        <time>2019-01-25T13:55:07Z</time>
      </trkpt>
      <trkpt lat="45.26701" lon="6.15084">
        <ele>2403</ele>
        <time>2019-01-25T13:55:13Z</time>
      </trkpt>
      <trkpt lat="45.26723" lon="6.1509">
        <ele>2394</ele>
        <time>2019-01-25T13:55:19Z</time>
      </trkpt>
      <trkpt lat="45.26743" lon="6.15077">
        <ele>2379</ele>
        <time>2019-01-25T13:55:23Z</time>
      </trkpt>
      <trkpt lat="45.26756" lon="6.15097">
        <ele>2367</ele>
        <time>2019-01-25T13:56:31Z</time>
      </trkpt>
      <trkpt lat="45.26783" lon="6.15091">
        <ele>2359</ele>
        <time>2019-01-25T13:56:37Z</time>
      </trkpt>
      <trkpt lat="45.26806" lon="6.15088">
        <ele>2350</ele>
        <time>2019-01-25T13:56:41Z</time>
      </trkpt>
      <trkpt lat="45.26826" lon="6.15089">
        <ele>2339</ele>
        <time>2019-01-25T13:56:45Z</time>
      </trkpt>
      <trkpt lat="45.26847" lon="6.15087">
        <ele>2318</ele>
        <time>2019-01-25T13:57:27Z</time>
      </trkpt>
      <trkpt lat="45.26867" lon="6.15079">
        <ele>2308</ele>
        <time>2019-01-25T13:57:31Z</time>
      </trkpt>
      <trkpt lat="45.26889" lon="6.15077">
        <ele>2296</ele>
        <time>2019-01-25T13:57:35Z</time>
      </trkpt>
      <trkpt lat="45.26907" lon="6.15078">
        <ele>2281</ele>
        <time>2019-01-25T13:57:39Z</time>
      </trkpt>
      <trkpt lat="45.26918" lon="6.15058">
        <ele>2256</ele>
        <time>2019-01-25T13:57:43Z</time>
      </trkpt>
      <trkpt lat="45.26928" lon="6.1503">
        <ele>2256</ele>
        <time>2019-01-25T13:57:49Z</time>
      </trkpt>
      <trkpt lat="45.26939" lon="6.15007">
        <ele>2257</ele>
        <time>2019-01-25T13:57:57Z</time>
      </trkpt>
      <trkpt lat="45.26953" lon="6.15027">
        <ele>2247</ele>
        <time>2019-01-25T13:58:03Z</time>
      </trkpt>
      <trkpt lat="45.26975" lon="6.15034">
        <ele>2239</ele>
        <time>2019-01-25T13:58:07Z</time>
      </trkpt>
      <trkpt lat="45.26999" lon="6.15043">
        <ele>2234</ele>
        <time>2019-01-25T13:58:13Z</time>
      </trkpt>
      <trkpt lat="45.27022" lon="6.15057">
        <ele>2201</ele>
        <time>2019-01-25T13:58:19Z</time>
      </trkpt>
      <trkpt lat="45.27044" lon="6.1507">
        <ele>2194</ele>
        <time>2019-01-25T13:58:25Z</time>
      </trkpt>
      <trkpt lat="45.27069" lon="6.15081">
        <ele>2182</ele>
        <time>2019-01-25T13:58:31Z</time>
      </trkpt>
      <trkpt lat="45.27087" lon="6.15081">
        <ele>2167</ele>
        <time>2019-01-25T13:58:35Z</time>
      </trkpt>
      <trkpt lat="45.27097" lon="6.15059">
        <ele>2158</ele>
        <time>2019-01-25T14:00:29Z</time>
      </trkpt>
      <trkpt lat="45.27122" lon="6.15078">
        <ele>2150</ele>
        <time>2019-01-25T14:00:35Z</time>
      </trkpt>
      <trkpt lat="45.27144" lon="6.15086">
        <ele>2135</ele>
        <time>2019-01-25T14:00:39Z</time>
      </trkpt>
      <trkpt lat="45.27163" lon="6.15098">
        <ele>2130</ele>
        <time>2019-01-25T14:00:43Z</time>
      </trkpt>
      <trkpt lat="45.27182" lon="6.15114">
        <ele>2104</ele>
        <time>2019-01-25T14:00:49Z</time>
      </trkpt>
      <trkpt lat="45.27205" lon="6.15133">
        <ele>2098</ele>
        <time>2019-01-25T14:00:56Z</time>
      </trkpt>
      <trkpt lat="45.27222" lon="6.15153">
        <ele>2092</ele>
        <time>2019-01-25T14:01:38Z</time>
      </trkpt>
      <trkpt lat="45.27229" lon="6.15185">
        <ele>2080</ele>
        <time>2019-01-25T14:01:44Z</time>
      </trkpt>
      <trkpt lat="45.27224" lon="6.15217">
        <ele>2078</ele>
        <time>2019-01-25T14:01:50Z</time>
      </trkpt>
      <trkpt lat="45.27222" lon="6.15255">
        <ele>2068</ele>
        <time>2019-01-25T14:01:56Z</time>
      </trkpt>
      <trkpt lat="45.27225" lon="6.15283">
        <ele>2067</ele>
        <time>2019-01-25T14:02:00Z</time>
      </trkpt>
      <trkpt lat="45.27242" lon="6.15306">
        <ele>2060</ele>
        <time>2019-01-25T14:02:04Z</time>
      </trkpt>
      <trkpt lat="45.27261" lon="6.15327">
        <ele>2041</ele>
        <time>2019-01-25T14:02:08Z</time>
      </trkpt>
      <trkpt lat="45.2728" lon="6.1535">
        <ele>2032</ele>
        <time>2019-01-25T14:02:12Z</time>
      </trkpt>
      <trkpt lat="45.273" lon="6.1537">
        <ele>2029</ele>
        <time>2019-01-25T14:02:16Z</time>
      </trkpt>
      <trkpt lat="45.27306" lon="6.15401">
        <ele>2026</ele>
        <time>2019-01-25T14:02:20Z</time>
      </trkpt>
      <trkpt lat="45.27311" lon="6.1543">
        <ele>2019</ele>
        <time>2019-01-25T14:02:24Z</time>
      </trkpt>
      <trkpt lat="45.27318" lon="6.15456">
        <ele>2017</ele>
        <time>2019-01-25T14:02:28Z</time>
      </trkpt>
      <trkpt lat="45.27324" lon="6.15486">
        <ele>2011</ele>
        <time>2019-01-25T14:02:32Z</time>
      </trkpt>
      <trkpt lat="45.27323" lon="6.15514">
        <ele>2006</ele>
        <time>2019-01-25T14:02:36Z</time>
      </trkpt>
      <trkpt lat="45.27323" lon="6.15543">
        <ele>2007</ele>
        <time>2019-01-25T14:02:40Z</time>
      </trkpt>
      <trkpt lat="45.27327" lon="6.15571">
        <ele>2002</ele>
        <time>2019-01-25T14:02:44Z</time>
      </trkpt>
      <trkpt lat="45.27331" lon="6.15602">
        <ele>1998</ele>
        <time>2019-01-25T14:02:48Z</time>
      </trkpt>
      <trkpt lat="45.27336" lon="6.15632">
        <ele>1982</ele>
        <time>2019-01-25T14:02:52Z</time>
      </trkpt>
      <trkpt lat="45.27343" lon="6.15661">
        <ele>1980</ele>
        <time>2019-01-25T14:02:56Z</time>
      </trkpt>
      <trkpt lat="45.27347" lon="6.1569">
        <ele>1970</ele>
        <time>2019-01-25T14:03:00Z</time>
      </trkpt>
      <trkpt lat="45.27347" lon="6.15717">
        <ele>1966</ele>
        <time>2019-01-25T14:03:04Z</time>
      </trkpt>
      <trkpt lat="45.27343" lon="6.15743">
        <ele>1966</ele>
        <time>2019-01-25T14:03:08Z</time>
      </trkpt>
      <trkpt lat="45.27354" lon="6.15768">
        <ele>1957</ele>
        <time>2019-01-25T14:03:12Z</time>
      </trkpt>
      <trkpt lat="45.27371" lon="6.158">
        <ele>1952</ele>
        <time>2019-01-25T14:03:16Z</time>
      </trkpt>
      <trkpt lat="45.27381" lon="6.15829">
        <ele>1949</ele>
        <time>2019-01-25T14:03:20Z</time>
      </trkpt>
      <trkpt lat="45.27395" lon="6.15857">
        <ele>1943</ele>
        <time>2019-01-25T14:03:24Z</time>
      </trkpt>
      <trkpt lat="45.27407" lon="6.15885">
        <ele>1941</ele>
        <time>2019-01-25T14:03:28Z</time>
      </trkpt>
      <trkpt lat="45.27417" lon="6.15916">
        <ele>1930</ele>
        <time>2019-01-25T14:03:32Z</time>
      </trkpt>
      <trkpt lat="45.27429" lon="6.15937">
        <ele>1926</ele>
        <time>2019-01-25T14:03:38Z</time>
      </trkpt>
      <trkpt lat="45.27444" lon="6.15955">
        <ele>1924</ele>
        <time>2019-01-25T14:03:46Z</time>
      </trkpt>
      <trkpt lat="45.27461" lon="6.15973">
        <ele>1922</ele>
        <time>2019-01-25T14:03:54Z</time>
      </trkpt>
      <trkpt lat="45.27477" lon="6.15994">
        <ele>1918</ele>
        <time>2019-01-25T14:04:02Z</time>
      </trkpt>
      <trkpt lat="45.27488" lon="6.16017">
        <ele>1915</ele>
        <time>2019-01-25T14:04:56Z</time>
      </trkpt>
      <trkpt lat="45.275" lon="6.16049">
        <ele>1915</ele>
        <time>2019-01-25T14:05:02Z</time>
      </trkpt>
      <trkpt lat="45.27511" lon="6.16082">
        <ele>1904</ele>
        <time>2019-01-25T14:05:08Z</time>
      </trkpt>
      <trkpt lat="45.27523" lon="6.16116">
        <ele>1897</ele>
        <time>2019-01-25T14:05:14Z</time>
      </trkpt>
      <trkpt lat="45.27536" lon="6.16149">
        <ele>1895</ele>
        <time>2019-01-25T14:05:20Z</time>
      </trkpt>
      <trkpt lat="45.27556" lon="6.16167">
        <ele>1890</ele>
        <time>2019-01-25T14:05:24Z</time>
      </trkpt>
      <trkpt lat="45.27572" lon="6.16193">
        <ele>1888</ele>
        <time>2019-01-25T14:05:28Z</time>
      </trkpt>
      <trkpt lat="45.2759" lon="6.1623">
        <ele>1873</ele>
        <time>2019-01-25T14:05:32Z</time>
      </trkpt>
      <trkpt lat="45.27603" lon="6.16253">
        <ele>1872</ele>
        <time>2019-01-25T14:05:36Z</time>
      </trkpt>
      <trkpt lat="45.2762" lon="6.1628">
        <ele>1868</ele>
        <time>2019-01-25T14:05:42Z</time>
      </trkpt>
      <trkpt lat="45.27635" lon="6.16309">
        <ele>1865</ele>
        <time>2019-01-25T14:05:48Z</time>
      </trkpt>
      <trkpt lat="45.27646" lon="6.16332">
        <ele>1861</ele>
        <time>2019-01-25T14:05:54Z</time>
      </trkpt>
      <trkpt lat="45.27646" lon="6.16361">
        <ele>1861</ele>
        <time>2019-01-25T14:06:00Z</time>
      </trkpt>
      <trkpt lat="45.27648" lon="6.16396">
        <ele>1859</ele>
        <time>2019-01-25T14:06:04Z</time>
      </trkpt>
      <trkpt lat="45.27658" lon="6.1643">
        <ele>1855</ele>
        <time>2019-01-25T14:06:08Z</time>
      </trkpt>
      <trkpt lat="45.2767" lon="6.16457">
        <ele>1831</ele>
        <time>2019-01-25T14:06:12Z</time>
      </trkpt>
      <trkpt lat="45.277" lon="6.16453">
        <ele>1825</ele>
        <time>2019-01-25T14:06:17Z</time>
      </trkpt>
      <trkpt lat="45.27723" lon="6.16467">
        <ele>1819</ele>
        <time>2019-01-25T14:06:23Z</time>
      </trkpt>
      <trkpt lat="45.27749" lon="6.16469">
        <ele>1814</ele>
        <time>2019-01-25T14:06:27Z</time>
      </trkpt>
      <trkpt lat="45.27775" lon="6.16463">
        <ele>1789</ele>
        <time>2019-01-25T14:06:31Z</time>
      </trkpt>
      <trkpt lat="45.27794" lon="6.16477">
        <ele>1786</ele>
        <time>2019-01-25T14:06:35Z</time>
      </trkpt>
      <trkpt lat="45.27811" lon="6.16452">
        <ele>1783</ele>
        <time>2019-01-25T14:06:39Z</time>
      </trkpt>
      <trkpt lat="45.2783" lon="6.16476">
        <ele>1779</ele>
        <time>2019-01-25T14:06:45Z</time>
      </trkpt>
      <trkpt lat="45.27848" lon="6.16459">
        <ele>1768</ele>
        <time>2019-01-25T14:06:51Z</time>
      </trkpt>
      <trkpt lat="45.27868" lon="6.16458">
        <ele>1767</ele>
        <time>2019-01-25T14:06:55Z</time>
      </trkpt>
      <trkpt lat="45.27888" lon="6.16466">
        <ele>1765</ele>
        <time>2019-01-25T14:07:00Z</time>
      </trkpt>
      <trkpt lat="45.27905" lon="6.16483">
        <ele>1762</ele>
        <time>2019-01-25T14:07:06Z</time>
      </trkpt>
      <trkpt lat="45.27924" lon="6.16495">
        <ele>1760</ele>
        <time>2019-01-25T14:07:16Z</time>
      </trkpt>
      <trkpt lat="45.27932" lon="6.16531">
        <ele>1756</ele>
        <time>2019-01-25T14:07:30Z</time>
      </trkpt>
      <trkpt lat="45.27927" lon="6.1656">
        <ele>1753</ele>
        <time>2019-01-25T14:07:38Z</time>
      </trkpt>
      <trkpt lat="45.27937" lon="6.16591">
        <ele>1747</ele>
        <time>2019-01-25T14:07:42Z</time>
      </trkpt>
      <trkpt lat="45.27945" lon="6.16614">
        <ele>1746</ele>
        <time>2019-01-25T14:07:46Z</time>
      </trkpt>
      <trkpt lat="45.27955" lon="6.16635">
        <ele>1745</ele>
        <time>2019-01-25T14:07:54Z</time>
      </trkpt>
      <trkpt lat="45.27969" lon="6.16664">
        <ele>1744</ele>
        <time>2019-01-25T14:08:00Z</time>
      </trkpt>
      <trkpt lat="45.27973" lon="6.16696">
        <ele>1737</ele>
        <time>2019-01-25T14:08:04Z</time>
      </trkpt>
      <trkpt lat="45.27972" lon="6.16732">
        <ele>1735</ele>
        <time>2019-01-25T14:08:08Z</time>
      </trkpt>
      <trkpt lat="45.27977" lon="6.16768">
        <ele>1728</ele>
        <time>2019-01-25T14:08:14Z</time>
      </trkpt>
      <trkpt lat="45.27983" lon="6.16797">
        <ele>1727</ele>
        <time>2019-01-25T14:08:18Z</time>
      </trkpt>
      <trkpt lat="45.27987" lon="6.16827">
        <ele>1725</ele>
        <time>2019-01-25T14:08:22Z</time>
      </trkpt>
      <trkpt lat="45.27985" lon="6.16854">
        <ele>1722</ele>
        <time>2019-01-25T14:08:26Z</time>
      </trkpt>
      <trkpt lat="45.27988" lon="6.1688">
        <ele>1721</ele>
        <time>2019-01-25T14:08:38Z</time>
      </trkpt>
      <trkpt lat="45.27994" lon="6.16904">
        <ele>1720</ele>
        <time>2019-01-25T14:08:58Z</time>
      </trkpt>
      <trkpt lat="45.27997" lon="6.16935">
        <ele>1718</ele>
        <time>2019-01-25T14:09:12Z</time>
      </trkpt>
      <trkpt lat="45.28" lon="6.16965">
        <ele>1722</ele>
        <time>2019-01-25T14:09:18Z</time>
      </trkpt>
      <trkpt lat="45.28007" lon="6.16994">
        <ele>1717</ele>
        <time>2019-01-25T14:09:28Z</time>
      </trkpt>
      <trkpt lat="45.28013" lon="6.17023">
        <ele>1717</ele>
        <time>2019-01-25T14:09:34Z</time>
      </trkpt>
      <trkpt lat="45.2802" lon="6.17049">
        <ele>1717</ele>
        <time>2019-01-25T14:09:48Z</time>
      </trkpt>
      <trkpt lat="45.28025" lon="6.1708">
        <ele>1714</ele>
        <time>2019-01-25T14:09:56Z</time>
      </trkpt>
      <trkpt lat="45.28024" lon="6.17112">
        <ele>1711</ele>
        <time>2019-01-25T14:10:03Z</time>
      </trkpt>
      <trkpt lat="45.28021" lon="6.1714">
        <ele>1709</ele>
        <time>2019-01-25T14:10:11Z</time>
      </trkpt>
      <trkpt lat="45.28016" lon="6.17166">
        <ele>1704</ele>
        <time>2019-01-25T14:10:15Z</time>
      </trkpt>
      <trkpt lat="45.28014" lon="6.172">
        <ele>1704</ele>
        <time>2019-01-25T14:10:19Z</time>
      </trkpt>
      <trkpt lat="45.28013" lon="6.17235">
        <ele>1701</ele>
        <time>2019-01-25T14:10:23Z</time>
      </trkpt>
      <trkpt lat="45.28017" lon="6.17266">
        <ele>1699</ele>
        <time>2019-01-25T14:10:27Z</time>
      </trkpt>
      <trkpt lat="45.28019" lon="6.17297">
        <ele>1698</ele>
        <time>2019-01-25T14:10:31Z</time>
      </trkpt>
      <trkpt lat="45.28016" lon="6.1733">
        <ele>1693</ele>
        <time>2019-01-25T14:10:35Z</time>
      </trkpt>
      <trkpt lat="45.28007" lon="6.17354">
        <ele>1687</ele>
        <time>2019-01-25T14:10:39Z</time>
      </trkpt>
      <trkpt lat="45.28015" lon="6.1739">
        <ele>1684</ele>
        <time>2019-01-25T14:10:43Z</time>
      </trkpt>
      <trkpt lat="45.28023" lon="6.17433">
        <ele>1676</ele>
        <time>2019-01-25T14:10:47Z</time>
      </trkpt>
      <trkpt lat="45.28026" lon="6.17472">
        <ele>1675</ele>
        <time>2019-01-25T14:10:51Z</time>
      </trkpt>
      <trkpt lat="45.28028" lon="6.17508">
        <ele>1668</ele>
        <time>2019-01-25T14:10:55Z</time>
      </trkpt>
      <trkpt lat="45.28029" lon="6.17549">
        <ele>1668</ele>
        <time>2019-01-25T14:10:59Z</time>
      </trkpt>
      <trkpt lat="45.28022" lon="6.17596">
        <ele>1660</ele>
        <time>2019-01-25T14:11:03Z</time>
      </trkpt>
      <trkpt lat="45.2802" lon="6.17632">
        <ele>1659</ele>
        <time>2019-01-25T14:11:07Z</time>
      </trkpt>
      <trkpt lat="45.28014" lon="6.17661">
        <ele>1653</ele>
        <time>2019-01-25T14:11:13Z</time>
      </trkpt>
      <trkpt lat="45.28015" lon="6.17691">
        <ele>1651</ele>
        <time>2019-01-25T14:11:17Z</time>
      </trkpt>
      <trkpt lat="45.28018" lon="6.17722">
        <ele>1650</ele>
        <time>2019-01-25T14:11:23Z</time>
      </trkpt>
      <trkpt lat="45.28014" lon="6.17749">
        <ele>1644</ele>
        <time>2019-01-25T14:11:27Z</time>
      </trkpt>
      <trkpt lat="45.28011" lon="6.17779">
        <ele>1642</ele>
        <time>2019-01-25T14:11:31Z</time>
      </trkpt>
      <trkpt lat="45.28006" lon="6.17815">
        <ele>1637</ele>
        <time>2019-01-25T14:11:35Z</time>
      </trkpt>
      <trkpt lat="45.28" lon="6.17854">
        <ele>1634</ele>
        <time>2019-01-25T14:11:39Z</time>
      </trkpt>
      <trkpt lat="45.27996" lon="6.17887">
        <ele>1621</ele>
        <time>2019-01-25T14:11:43Z</time>
      </trkpt>
      <trkpt lat="45.27991" lon="6.17912">
        <ele>1623</ele>
        <time>2019-01-25T14:11:47Z</time>
      </trkpt>
      <trkpt lat="45.27985" lon="6.17941">
        <ele>1616</ele>
        <time>2019-01-25T14:11:51Z</time>
      </trkpt>
      <trkpt lat="45.27984" lon="6.17971">
        <ele>1613</ele>
        <time>2019-01-25T14:11:55Z</time>
      </trkpt>
      <trkpt lat="45.27984" lon="6.17997">
        <ele>1613</ele>
        <time>2019-01-25T14:11:59Z</time>
      </trkpt>
      <trkpt lat="45.27987" lon="6.18028">
        <ele>1604</ele>
        <time>2019-01-25T14:12:03Z</time>
      </trkpt>
      <trkpt lat="45.27992" lon="6.18053">
        <ele>1601</ele>
        <time>2019-01-25T14:12:07Z</time>
      </trkpt>
      <trkpt lat="45.27996" lon="6.18082">
        <ele>1601</ele>
        <time>2019-01-25T14:12:13Z</time>
      </trkpt>
      <trkpt lat="45.27993" lon="6.18116">
        <ele>1592</ele>
        <time>2019-01-25T14:12:19Z</time>
      </trkpt>
      <trkpt lat="45.27986" lon="6.18151">
        <ele>1591</ele>
        <time>2019-01-25T14:12:23Z</time>
      </trkpt>
      <trkpt lat="45.27986" lon="6.18186">
        <ele>1585</ele>
        <time>2019-01-25T14:12:27Z</time>
      </trkpt>
      <trkpt lat="45.27996" lon="6.18212">
        <ele>1582</ele>
        <time>2019-01-25T14:12:31Z</time>
      </trkpt>
      <trkpt lat="45.27998" lon="6.18244">
        <ele>1582</ele>
        <time>2019-01-25T14:12:37Z</time>
      </trkpt>
      <trkpt lat="45.27982" lon="6.18273">
        <ele>1575</ele>
        <time>2019-01-25T14:12:41Z</time>
      </trkpt>
      <trkpt lat="45.2797" lon="6.18301">
        <ele>1573</ele>
        <time>2019-01-25T14:12:45Z</time>
      </trkpt>
      <trkpt lat="45.27959" lon="6.18326">
        <ele>1570</ele>
        <time>2019-01-25T14:12:49Z</time>
      </trkpt>
      <trkpt lat="45.27948" lon="6.18358">
        <ele>1568</ele>
        <time>2019-01-25T14:12:53Z</time>
      </trkpt>
      <trkpt lat="45.27947" lon="6.1839">
        <ele>1568</ele>
        <time>2019-01-25T14:12:57Z</time>
      </trkpt>
      <trkpt lat="45.27933" lon="6.18408">
        <ele>1562</ele>
        <time>2019-01-25T14:13:05Z</time>
      </trkpt>
      <trkpt lat="45.27914" lon="6.18417">
        <ele>1552</ele>
        <time>2019-01-25T14:13:13Z</time>
      </trkpt>
      <trkpt lat="45.27906" lon="6.18443">
        <ele>1550</ele>
        <time>2019-01-25T14:13:21Z</time>
      </trkpt>
      <trkpt lat="45.27907" lon="6.1847">
        <ele>1548</ele>
        <time>2019-01-25T14:13:27Z</time>
      </trkpt>
      <trkpt lat="45.27889" lon="6.18472">
        <ele>1549</ele>
        <time>2019-01-25T14:13:31Z</time>
      </trkpt>
      <trkpt lat="45.27891" lon="6.18506">
        <ele>1543</ele>
        <time>2019-01-25T14:13:37Z</time>
      </trkpt>
      <trkpt lat="45.27892" lon="6.18532">
        <ele>1542</ele>
        <time>2019-01-25T14:13:41Z</time>
      </trkpt>
      <trkpt lat="45.27901" lon="6.18557">
        <ele>1540</ele>
        <time>2019-01-25T14:13:47Z</time>
      </trkpt>
      <trkpt lat="45.27907" lon="6.18592">
        <ele>1533</ele>
        <time>2019-01-25T14:13:55Z</time>
      </trkpt>
      <trkpt lat="45.27907" lon="6.18624">
        <ele>1530</ele>
        <time>2019-01-25T14:13:59Z</time>
      </trkpt>
      <trkpt lat="45.27906" lon="6.18656">
        <ele>1527</ele>
        <time>2019-01-25T14:14:03Z</time>
      </trkpt>
      <trkpt lat="45.27906" lon="6.18689">
        <ele>1521</ele>
        <time>2019-01-25T14:14:07Z</time>
      </trkpt>
      <trkpt lat="45.27907" lon="6.18721">
        <ele>1518</ele>
        <time>2019-01-25T14:14:11Z</time>
      </trkpt>
      <trkpt lat="45.27915" lon="6.18749">
        <ele>1514</ele>
        <time>2019-01-25T14:14:15Z</time>
      </trkpt>
      <trkpt lat="45.27918" lon="6.18776">
        <ele>1522</ele>
        <time>2019-01-25T14:14:23Z</time>
      </trkpt>
      <trkpt lat="45.27916" lon="6.18805">
        <ele>1512</ele>
        <time>2019-01-25T14:14:37Z</time>
      </trkpt>
      <trkpt lat="45.27907" lon="6.18832">
        <ele>1511</ele>
        <time>2019-01-25T14:14:55Z</time>
      </trkpt>
      <trkpt lat="45.27896" lon="6.18855">
        <ele>1508</ele>
        <time>2019-01-25T14:15:09Z</time>
      </trkpt>
      <trkpt lat="45.27888" lon="6.18878">
        <ele>1506</ele>
        <time>2019-01-25T14:15:17Z</time>
      </trkpt>
      <trkpt lat="45.27882" lon="6.18904">
        <ele>1505</ele>
        <time>2019-01-25T14:15:23Z</time>
      </trkpt>
      <trkpt lat="45.27892" lon="6.18931">
        <ele>1499</ele>
        <time>2019-01-25T14:15:46Z</time>
      </trkpt>
      <trkpt lat="45.27874" lon="6.1894">
        <ele>1497</ele>
        <time>2019-01-25T14:15:56Z</time>
      </trkpt>
      <trkpt lat="45.27858" lon="6.18965">
        <ele>1493</ele>
        <time>2019-01-25T14:16:02Z</time>
      </trkpt>
      <trkpt lat="45.2784" lon="6.18968">
        <ele>1492</ele>
        <time>2019-01-25T14:16:08Z</time>
      </trkpt>
      <trkpt lat="45.27833" lon="6.18995">
        <ele>1486</ele>
        <time>2019-01-25T14:16:16Z</time>
      </trkpt>
      <trkpt lat="45.27846" lon="6.19014">
        <ele>1482</ele>
        <time>2019-01-25T14:16:26Z</time>
      </trkpt>
      <trkpt lat="45.27843" lon="6.19051">
        <ele>1480</ele>
        <time>2019-01-25T14:16:32Z</time>
      </trkpt>
      <trkpt lat="45.27851" lon="6.19077">
        <ele>1477</ele>
        <time>2019-01-25T14:16:38Z</time>
      </trkpt>
      <trkpt lat="45.27857" lon="6.19102">
        <ele>1470</ele>
        <time>2019-01-25T14:16:46Z</time>
      </trkpt>
      <trkpt lat="45.27863" lon="6.19128">
        <ele>1468</ele>
        <time>2019-01-25T14:16:50Z</time>
      </trkpt>
      <trkpt lat="45.2787" lon="6.19164">
        <ele>1465</ele>
        <time>2019-01-25T14:16:56Z</time>
      </trkpt>
      <trkpt lat="45.27881" lon="6.19191">
        <ele>1458</ele>
        <time>2019-01-25T14:17:04Z</time>
      </trkpt>
      <trkpt lat="45.27879" lon="6.19219">
        <ele>1456</ele>
        <time>2019-01-25T14:17:12Z</time>
      </trkpt>
      <trkpt lat="45.27889" lon="6.19251">
        <ele>1450</ele>
        <time>2019-01-25T14:17:20Z</time>
      </trkpt>
      <trkpt lat="45.27896" lon="6.19275">
        <ele>1449</ele>
        <time>2019-01-25T14:17:24Z</time>
      </trkpt>
      <trkpt lat="45.27906" lon="6.19307">
        <ele>1446</ele>
        <time>2019-01-25T14:17:30Z</time>
      </trkpt>
      <trkpt lat="45.27918" lon="6.19332">
        <ele>1447</ele>
        <time>2019-01-25T14:17:36Z</time>
      </trkpt>
      <trkpt lat="45.27934" lon="6.19355">
        <ele>1447</ele>
        <time>2019-01-25T14:17:42Z</time>
      </trkpt>
      <trkpt lat="45.27946" lon="6.19375">
        <ele>1446</ele>
        <time>2019-01-25T14:18:00Z</time>
      </trkpt>
      <trkpt lat="45.27956" lon="6.19401">
        <ele>1445</ele>
        <time>2019-01-25T14:18:04Z</time>
      </trkpt>
      <trkpt lat="45.27969" lon="6.19434">
        <ele>1435</ele>
        <time>2019-01-25T14:18:08Z</time>
      </trkpt>
      <trkpt lat="45.27975" lon="6.19472">
        <ele>1432</ele>
        <time>2019-01-25T14:18:12Z</time>
      </trkpt>
      <trkpt lat="45.27983" lon="6.19507">
        <ele>1423</ele>
        <time>2019-01-25T14:18:16Z</time>
      </trkpt>
      <trkpt lat="45.27993" lon="6.19533">
        <ele>1419</ele>
        <time>2019-01-25T14:18:20Z</time>
      </trkpt>
      <trkpt lat="45.28006" lon="6.19559">
        <ele>1431</ele>
        <time>2019-01-25T14:18:28Z</time>
      </trkpt>
      <trkpt lat="45.28022" lon="6.19583">
        <ele>1430</ele>
        <time>2019-01-25T14:18:40Z</time>
      </trkpt>
      <trkpt lat="45.28026" lon="6.19615">
        <ele>1419</ele>
        <time>2019-01-25T14:18:46Z</time>
      </trkpt>
      <trkpt lat="45.28039" lon="6.19643">
        <ele>1418</ele>
        <time>2019-01-25T14:18:50Z</time>
      </trkpt>
      <trkpt lat="45.28053" lon="6.19679">
        <ele>1407</ele>
        <time>2019-01-25T14:18:54Z</time>
      </trkpt>
      <trkpt lat="45.28064" lon="6.19705">
        <ele>1406</ele>
        <time>2019-01-25T14:18:58Z</time>
      </trkpt>
      <trkpt lat="45.28077" lon="6.19731">
        <ele>1405</ele>
        <time>2019-01-25T14:19:02Z</time>
      </trkpt>
      <trkpt lat="45.28088" lon="6.19761">
        <ele>1412</ele>
        <time>2019-01-25T14:19:06Z</time>
      </trkpt>
      <trkpt lat="45.28088" lon="6.1979">
        <ele>1413</ele>
        <time>2019-01-25T14:19:12Z</time>
      </trkpt>
      <trkpt lat="45.28089" lon="6.19824">
        <ele>1404</ele>
        <time>2019-01-25T14:19:18Z</time>
      </trkpt>
      <trkpt lat="45.28097" lon="6.19849">
        <ele>1401</ele>
        <time>2019-01-25T14:19:24Z</time>
      </trkpt>
      <trkpt lat="45.28109" lon="6.19869">
        <ele>1403</ele>
        <time>2019-01-25T14:19:32Z</time>
      </trkpt>
      <trkpt lat="45.2811" lon="6.19897">
        <ele>1400</ele>
        <time>2019-01-25T14:20:02Z</time>
      </trkpt>
      <trkpt lat="45.28107" lon="6.19932">
        <ele>1389</ele>
        <time>2019-01-25T14:20:14Z</time>
      </trkpt>
      <trkpt lat="45.28113" lon="6.1997">
        <ele>1387</ele>
        <time>2019-01-25T14:20:20Z</time>
      </trkpt>
      <trkpt lat="45.28122" lon="6.19998">
        <ele>1386</ele>
        <time>2019-01-25T14:20:26Z</time>
      </trkpt>
      <trkpt lat="45.28132" lon="6.20024">
        <ele>1377</ele>
        <time>2019-01-25T14:20:32Z</time>
      </trkpt>
      <trkpt lat="45.28143" lon="6.20048">
        <ele>1376</ele>
        <time>2019-01-25T14:20:40Z</time>
      </trkpt>
      <trkpt lat="45.28148" lon="6.20075">
        <ele>1374</ele>
        <time>2019-01-25T14:20:46Z</time>
      </trkpt>
      <trkpt lat="45.28161" lon="6.20099">
        <ele>1367</ele>
        <time>2019-01-25T14:20:54Z</time>
      </trkpt>
      <trkpt lat="45.28166" lon="6.20129">
        <ele>1360</ele>
        <time>2019-01-25T14:21:06Z</time>
      </trkpt>
      <trkpt lat="45.28182" lon="6.20143">
        <ele>1367</ele>
        <time>2019-01-25T14:21:14Z</time>
      </trkpt>
      <trkpt lat="45.28202" lon="6.20167">
        <ele>1353</ele>
        <time>2019-01-25T14:21:20Z</time>
      </trkpt>
      <trkpt lat="45.28214" lon="6.20198">
        <ele>1352</ele>
        <time>2019-01-25T14:21:24Z</time>
      </trkpt>
      <trkpt lat="45.28228" lon="6.20233">
        <ele>1347</ele>
        <time>2019-01-25T14:21:28Z</time>
      </trkpt>
      <trkpt lat="45.28237" lon="6.20264">
        <ele>1337</ele>
        <time>2019-01-25T14:21:32Z</time>
      </trkpt>
      <trkpt lat="45.28247" lon="6.20298">
        <ele>1333</ele>
        <time>2019-01-25T14:21:38Z</time>
      </trkpt>
      <trkpt lat="45.2826" lon="6.20328">
        <ele>1330</ele>
        <time>2019-01-25T14:21:42Z</time>
      </trkpt>
      <trkpt lat="45.28282" lon="6.20333">
        <ele>1338</ele>
        <time>2019-01-25T14:21:48Z</time>
      </trkpt>
      <trkpt lat="45.28284" lon="6.20361">
        <ele>1325</ele>
        <time>2019-01-25T14:21:58Z</time>
      </trkpt>
      <trkpt lat="45.28305" lon="6.20363">
        <ele>1328</ele>
        <time>2019-01-25T14:22:22Z</time>
      </trkpt>
      <trkpt lat="45.28307" lon="6.20394">
        <ele>1325</ele>
        <time>2019-01-25T14:23:08Z</time>
      </trkpt>
      <trkpt lat="45.28311" lon="6.20428">
        <ele>1315</ele>
        <time>2019-01-25T14:23:16Z</time>
      </trkpt>
      <trkpt lat="45.28322" lon="6.20449">
        <ele>1313</ele>
        <time>2019-01-25T14:23:22Z</time>
      </trkpt>
      <trkpt lat="45.28324" lon="6.20483">
        <ele>1308</ele>
        <time>2019-01-25T14:23:30Z</time>
      </trkpt>
      <trkpt lat="45.28333" lon="6.20513">
        <ele>1301</ele>
        <time>2019-01-25T14:23:36Z</time>
      </trkpt>
      <trkpt lat="45.28338" lon="6.20542">
        <ele>1309</ele>
        <time>2019-01-25T14:23:40Z</time>
      </trkpt>
      <trkpt lat="45.28343" lon="6.20573">
        <ele>1301</ele>
        <time>2019-01-25T14:23:44Z</time>
      </trkpt>
      <trkpt lat="45.28355" lon="6.20601">
        <ele>1296</ele>
        <time>2019-01-25T14:23:50Z</time>
      </trkpt>
      <trkpt lat="45.28353" lon="6.20632">
        <ele>1294</ele>
        <time>2019-01-25T14:23:58Z</time>
      </trkpt>
      <trkpt lat="45.28349" lon="6.20659">
        <ele>1287</ele>
        <time>2019-01-25T14:24:06Z</time>
      </trkpt>
      <trkpt lat="45.28348" lon="6.20686">
        <ele>1279</ele>
        <time>2019-01-25T14:24:20Z</time>
      </trkpt>
      <trkpt lat="45.28359" lon="6.20709">
        <ele>1279</ele>
        <time>2019-01-25T14:24:26Z</time>
      </trkpt>
      <trkpt lat="45.28372" lon="6.20735">
        <ele>1278</ele>
        <time>2019-01-25T14:24:30Z</time>
      </trkpt>
      <trkpt lat="45.28359" lon="6.20756">
        <ele>1262</ele>
        <time>2019-01-25T14:24:40Z</time>
      </trkpt>
      <trkpt lat="45.28363" lon="6.20782">
        <ele>1262</ele>
        <time>2019-01-25T14:24:44Z</time>
      </trkpt>
      <trkpt lat="45.28375" lon="6.20804">
        <ele>1261</ele>
        <time>2019-01-25T14:24:48Z</time>
      </trkpt>
      <trkpt lat="45.28366" lon="6.20836">
        <ele>1245</ele>
        <time>2019-01-25T14:24:54Z</time>
      </trkpt>
      <trkpt lat="45.28351" lon="6.20853">
        <ele>1243</ele>
        <time>2019-01-25T14:25:02Z</time>
      </trkpt>
      <trkpt lat="45.28332" lon="6.20854">
        <ele>1238</ele>
        <time>2019-01-25T14:25:34Z</time>
      </trkpt>
      <trkpt lat="45.28326" lon="6.20879">
        <ele>1234</ele>
        <time>2019-01-25T14:25:38Z</time>
      </trkpt>
      <trkpt lat="45.2832" lon="6.20911">
        <ele>1228</ele>
        <time>2019-01-25T14:25:44Z</time>
      </trkpt>
      <trkpt lat="45.28325" lon="6.20945">
        <ele>1219</ele>
        <time>2019-01-25T14:25:50Z</time>
      </trkpt>
      <trkpt lat="45.28321" lon="6.20977">
        <ele>1216</ele>
        <time>2019-01-25T14:25:56Z</time>
      </trkpt>
      <trkpt lat="45.28336" lon="6.21007">
        <ele>1212</ele>
        <time>2019-01-25T14:26:02Z</time>
      </trkpt>
      <trkpt lat="45.28353" lon="6.21025">
        <ele>1212</ele>
        <time>2019-01-25T14:26:08Z</time>
      </trkpt>
      <trkpt lat="45.28369" lon="6.21037">
        <ele>1212</ele>
        <time>2019-01-25T14:28:02Z</time>
      </trkpt>
      <trkpt lat="45.28383" lon="6.21056">
        <ele>1211</ele>
        <time>2019-01-25T14:29:36Z</time>
      </trkpt>
    </trkseg>
  </trk>
</gpx>